Observation data for JA Ranch on 05/24/2019      Previous  Date       Current Mesonet Observations  Soil Data  Daily Summary Page  Observations in Plain Language
KPD3 240500Z 02003KT 22/20 A2993 RMK A01 T02160200  RH  091%=      5-min Rain = 0
KPD3 240501Z 02004KT 22/20 A2993 RMK A01 T02160200  RH  091%=      5-min Rain = 0
KPD3 240502Z 02004KT 22/20 A2992 RMK A01 T02170201  RH  091%=      5-min Rain = 0
KPD3 240503Z 02005KT 22/20 A2992 RMK A01 T02160202  RH  092%=      5-min Rain = 0
KPD3 240504Z 01006KT 22/20 A2992 RMK A01 T02160203  RH  092%=      5-min Rain = 0
KPD3 240505Z 01006KT 22/20 A2992 RMK A01 T02160203  RH  092%=      5-min Rain = 0
KPD3 240506Z 01007KT 22/20 A2992 RMK A01 T02150203  RH  093%=      5-min Rain = 0
KPD3 240507Z 02007KT 22/20 A2992 RMK A01 T02150203  RH  093%=      5-min Rain = 0
KPD3 240508Z 01007KT 21/20 A2992 RMK A01 T02140203  RH  093%=      5-min Rain = 0
KPD3 240509Z 36008KT 21/20 A2992 RMK A01 T02140203  RH  093%=      5-min Rain = 0
KPD3 240510Z 35008KT 21/20 A2992 RMK A01 T02140203  RH  093%=      5-min Rain = 0.01
KPD3 240511Z 35008KT 21/20 A2992 RMK A01 T02130202  RH  093%=      5-min Rain = 0
KPD3 240512Z 35009KT 21/20 A2992 RMK A01 T02130202  RH  093%=      5-min Rain = 0.01
KPD3 240513Z 35010KT 21/20 A2992 RMK A01 T02130202  RH  094%=      5-min Rain = 0
KPD3 240514Z 35010KT 21/20 A2992 RMK A01 T02120202  RH  094%=      5-min Rain = 0.01
KPD3 240515Z 36010KT 21/20 A2992 RMK A01 T02120203  RH  094%=      5-min Rain = 0
KPD3 240516Z 36008KT 21/20 A2992 RMK A01 T02120203  RH  094%=      5-min Rain = 0
KPD3 240517Z 35005KT 21/20 A2993 RMK A01 T02130203  RH  094%=      5-min Rain = 0
KPD3 240518Z 33003KT 21/20 A2993 RMK A01 T02140204  RH  094%=      5-min Rain = 0
KPD3 240519Z 27003KT 21/20 A2994 RMK A01 T02140204  RH  094%=      5-min Rain = 0.01
KPD3 240520Z 25007KT 22/21 A2995 RMK A01 T02150205  RH  094%=      5-min Rain = 0.01
KPD3 240521Z 25011KT 22/21 A2996 RMK A01 T02150205  RH  094%=      5-min Rain = 0.03
KPD3 240522Z 25014KT 21/21 A2997 RMK A01 T02140205  RH  094%=      5-min Rain = 0.05
KPD3 240523Z 27020G30KT 21/20 A2997 RMK A01 T02130202  RH  094%=      5-min Rain = 0.05
KPD3 240524Z 27018KT 21/17 A2996 RMK A01 T02060165  RH  077%=      5-min Rain = 0.05
KPD3 240525Z 27016G21KT 20/15 A2996 RMK A01 T02000149  RH  072%=      5-min Rain = 0.03
KPD3 240526Z 28013KT 20/16 A2995 RMK A01 T01970155  RH  077%=      5-min Rain = 0.02
KPD3 240527Z 29006KT 20/16 A2995 RMK A01 T01950161  RH  081%=      5-min Rain = 0.02
KPD3 240528Z 31006KT 19/16 A2994 RMK A01 T01940155  RH  078%=      5-min Rain = 0.03
KPD3 240529Z 33005KT 19/15 A2994 RMK A01 T01910151  RH  077%=      5-min Rain = 0.02
KPD3 240530Z 05002KT 19/15 A2994 RMK A01 T01890147  RH  077%=      5-min Rain = 0.01
KPD3 240531Z 14007KT 19/15 A2995 RMK A01 T01880150  RH  078%=      5-min Rain = 0.01
KPD3 240532Z 14008KT 19/16 A2995 RMK A01 T01860156  RH  082%=      5-min Rain = 0.01
KPD3 240533Z 12007KT 19/16 A2994 RMK A01 T01860159  RH  085%=      5-min Rain = 0
KPD3 240534Z 11007KT 19/16 A2994 RMK A01 T01860161  RH  086%=      5-min Rain = 0.01
KPD3 240535Z 12008KT 19/16 A2993 RMK A01 T01850164  RH  087%=      5-min Rain = 0
KPD3 240536Z 13007KT 19/17 A2993 RMK A01 T01850165  RH  088%=      5-min Rain = 0
KPD3 240537Z 14006KT 18/17 A2993 RMK A01 T01840165  RH  088%=      5-min Rain = 0
KPD3 240538Z 14007KT 18/17 A2993 RMK A01 T01840166  RH  089%=      5-min Rain = 0
KPD3 240539Z 15007KT 18/17 A2993 RMK A01 T01840166  RH  089%=      5-min Rain = 0
KPD3 240540Z 16008KT 18/17 A2993 RMK A01 T01840167  RH  090%=      5-min Rain = 0
KPD3 240541Z 16007KT 19/17 A2993 RMK A01 T01850169  RH  090%=      5-min Rain = 0
KPD3 240542Z 15005KT 19/17 A2993 RMK A01 T01870171  RH  090%=      5-min Rain = 0
KPD3 240543Z 13003KT 19/17 A2993 RMK A01 T01890170  RH  089%=      5-min Rain = 0
KPD3 240544Z 13002KT 19/17 A2993 RMK A01 T01900171  RH  089%=      5-min Rain = 0
KPD3 240545Z 11002KT 19/17 A2993 RMK A01 T01900172  RH  089%=      5-min Rain = 0
KPD3 240546Z 06003KT 19/17 A2993 RMK A01 T01900173  RH  090%=      5-min Rain = 0
KPD3 240547Z 04003KT 19/17 A2994 RMK A01 T01880171  RH  089%=      5-min Rain = 0
KPD3 240548Z 35002KT 19/17 A2994 RMK A01 T01860168  RH  089%=      5-min Rain = 0
KPD3 240549Z 30003KT 19/17 A2994 RMK A01 T01850168  RH  090%=      5-min Rain = 0
KPD3 240550Z 34004KT 19/17 A2995 RMK A01 T01850167  RH  089%=      5-min Rain = 0
KPD3 240551Z 33006KT 18/17 A2995 RMK A01 T01840165  RH  089%=      5-min Rain = 0
KPD3 240552Z 33009KT 18/16 A2996 RMK A01 T01840164  RH  088%=      5-min Rain = 0
KPD3 240553Z 33008KT 18/17 A2996 RMK A01 T01840165  RH  089%=      5-min Rain = 0
KPD3 240554Z 30006KT 18/17 A2996 RMK A01 T01840167  RH  090%=      5-min Rain = 0
KPD3 240555Z 28005KT 18/17 A2997 RMK A01 T01840170  RH  091%=      5-min Rain = 0
KPD3 240556Z 28006KT 19/17 A2997 RMK A01 T01860173  RH  092%=      5-min Rain = 0
KPD3 240557Z 28010G16KT 19/18 A2997 RMK A01 T01880175  RH  092%=      5-min Rain = 0.02
KPD3 240558Z 30012KT 19/18 A2997 RMK A01 T01910178  RH  092%=      5-min Rain = 0.02
KPD3 240559Z 30013KT 20/18 A2996 RMK A01 T01950181  RH  091%=      5-min Rain = 0.02
KPD3 240600Z 30012KT 20/18 A2996 RMK A01 T01950179  RH  091%=      5-min Rain = 0.02
KPD3 240601Z 32011KT 19/18 A2996 RMK A01 T01920176  RH  090%=      5-min Rain = 0.04
KPD3 240602Z 32009KT 19/17 A2996 RMK A01 T01870168  RH  089%=      5-min Rain = 0.01
KPD3 240603Z 33006KT 18/16 A2997 RMK A01 T01830164  RH  088%=      5-min Rain = 0.01
KPD3 240604Z 07004KT 18/16 A2997 RMK A01 T01810162  RH  089%=      5-min Rain = 0.03
KPD3 240605Z 09010KT 18/16 A2997 RMK A01 T01800164  RH  091%=      5-min Rain = 0.03
KPD3 240606Z 09010KT 18/16 A2996 RMK A01 T01770164  RH  092%=      5-min Rain = 0.01
KPD3 240607Z 07009KT 18/16 A2996 RMK A01 T01750162  RH  092%=      5-min Rain = 0.01
KPD3 240608Z 07010KT 17/16 A2995 RMK A01 T01730162  RH  093%=      5-min Rain = 0
KPD3 240609Z 08010KT 17/16 A2995 RMK A01 T01720162  RH  094%=      5-min Rain = 0
KPD3 240610Z 08009KT 17/16 A2994 RMK A01 T01720163  RH  094%=      5-min Rain = 0
KPD3 240611Z 08009KT 17/16 A2994 RMK A01 T01720164  RH  095%=      5-min Rain = 0.01
KPD3 240612Z 07009KT 17/16 A2995 RMK A01 T01720164  RH  095%=      5-min Rain = 0
KPD3 240613Z 07009KT 17/16 A2995 RMK A01 T01720164  RH  095%=      5-min Rain = 0
KPD3 240614Z 05010KT 17/16 A2995 RMK A01 T01710163  RH  095%=      5-min Rain = 0
KPD3 240615Z 04008KT 17/16 A2995 RMK A01 T01710162  RH  094%=      5-min Rain = 0
KPD3 240616Z 03008KT 17/16 A2995 RMK A01 T01710162  RH  094%=      5-min Rain = 0
KPD3 240617Z 02009KT 17/16 A2995 RMK A01 T01710162  RH  094%=      5-min Rain = 0
KPD3 240618Z 02010KT 17/16 A2995 RMK A01 T01710161  RH  094%=      5-min Rain = 0
KPD3 240619Z 01009KT 17/16 A2996 RMK A01 T01700161  RH  094%=      5-min Rain = 0
KPD3 240620Z 02009KT 17/16 A2996 RMK A01 T01700161  RH  094%=      5-min Rain = 0
KPD3 240621Z 02009KT 17/16 A2996 RMK A01 T01710161  RH  094%=      5-min Rain = 0
KPD3 240622Z 03008KT 17/16 A2996 RMK A01 T01720162  RH  094%=      5-min Rain = 0
KPD3 240623Z 03007KT 17/16 A2996 RMK A01 T01720162  RH  094%=      5-min Rain = 0
KPD3 240624Z 02006KT 17/16 A2996 RMK A01 T01720162  RH  094%=      5-min Rain = 0
KPD3 240625Z 02007KT 17/16 A2996 RMK A01 T01730163  RH  094%=      5-min Rain = 0
KPD3 240626Z 02007KT 17/16 A2996 RMK A01 T01730163  RH  094%=      5-min Rain = 0
KPD3 240627Z 02007KT 17/16 A2996 RMK A01 T01730164  RH  094%=      5-min Rain = 0
KPD3 240628Z 02006KT 17/17 A2996 RMK A01 T01740165  RH  094%=      5-min Rain = 0
KPD3 240629Z 03006KT 17/17 A2996 RMK A01 T01740166  RH  095%=      5-min Rain = 0
KPD3 240630Z 04005KT 17/17 A2996 RMK A01 T01740166  RH  095%=      5-min Rain = 0
KPD3 240631Z 06006KT 18/17 A2996 RMK A01 T01750166  RH  095%=      5-min Rain = 0
KPD3 240632Z 06007KT 18/17 A2995 RMK A01 T01750167  RH  095%=      5-min Rain = 0
KPD3 240633Z 07008KT 18/17 A2995 RMK A01 T01750167  RH  095%=      5-min Rain = 0
KPD3 240634Z 08007KT 18/17 A2995 RMK A01 T01760167  RH  095%=      5-min Rain = 0
KPD3 240635Z 08006KT 18/17 A2995 RMK A01 T01760167  RH  095%=      5-min Rain = 0
KPD3 240636Z 07006KT 18/17 A2995 RMK A01 T01760168  RH  095%=      5-min Rain = 0
KPD3 240637Z 06005KT 18/17 A2995 RMK A01 T01760168  RH  095%=      5-min Rain = 0
KPD3 240638Z 05003KT 18/17 A2995 RMK A01 T01760168  RH  095%=      5-min Rain = 0
KPD3 240639Z 00002KT 18/17 A2995 RMK A01 T01760168  RH  095%=      5-min Rain = 0
KPD3 240640Z 34003KT 18/17 A2995 RMK A01 T01770169  RH  095%=      5-min Rain = 0
KPD3 240641Z 00004KT 18/17 A2995 RMK A01 T01770169  RH  095%=      5-min Rain = 0
KPD3 240642Z 02003KT 18/17 A2995 RMK A01 T01770170  RH  096%=      5-min Rain = 0
KPD3 240643Z 02002KT 18/17 A2995 RMK A01 T01770170  RH  096%=      5-min Rain = 0
KPD3 240644Z 32001KT 18/17 A2995 RMK A01 T01770171  RH  096%=      5-min Rain = 0
KPD3 240645Z 32003KT 18/17 A2995 RMK A01 T01770171  RH  096%=      5-min Rain = 0
KPD3 240646Z 31003KT 18/17 A2995 RMK A01 T01770171  RH  096%=      5-min Rain = 0
KPD3 240647Z 27002KT 18/17 A2995 RMK A01 T01770171  RH  096%=      5-min Rain = 0
KPD3 240648Z 28004KT 18/17 A2995 RMK A01 T01780171  RH  096%=      5-min Rain = 0.01
KPD3 240649Z 30003KT 18/17 A2995 RMK A01 T01780171  RH  095%=      5-min Rain = 0
KPD3 240650Z 30005KT 18/17 A2995 RMK A01 T01790171  RH  095%=      5-min Rain = 0
KPD3 240651Z 32005KT 18/17 A2995 RMK A01 T01790170  RH  095%=      5-min Rain = 0
KPD3 240652Z 35003KT 18/17 A2995 RMK A01 T01790169  RH  094%=      5-min Rain = 0
KPD3 240653Z 35003KT 18/17 A2994 RMK A01 T01780169  RH  094%=      5-min Rain = 0
KPD3 240654Z 32004KT 18/17 A2995 RMK A01 T01780169  RH  095%=      5-min Rain = 0
KPD3 240655Z 28005KT 18/17 A2995 RMK A01 T01770169  RH  095%=      5-min Rain = 0
KPD3 240656Z 27007KT 18/17 A2995 RMK A01 T01760169  RH  095%=      5-min Rain = 0
KPD3 240657Z 29005KT 18/17 A2995 RMK A01 T01760169  RH  095%=      5-min Rain = 0
KPD3 240658Z 33003KT 18/17 A2995 RMK A01 T01750168  RH  095%=      5-min Rain = 0
KPD3 240659Z 00005KT 18/17 A2994 RMK A01 T01750167  RH  095%=      5-min Rain = 0
KPD3 240700Z 35005KT 18/17 A2995 RMK A01 T01750168  RH  096%=      5-min Rain = 0
KPD3 240701Z 34003KT 18/17 A2995 RMK A01 T01750168  RH  096%=      5-min Rain = 0
KPD3 240702Z 35002KT 18/17 A2995 RMK A01 T01750168  RH  096%=      5-min Rain = 0
KPD3 240703Z 00004KT 18/17 A2995 RMK A01 T01750168  RH  096%=      5-min Rain = 0
KPD3 240704Z 01006KT 18/17 A2994 RMK A01 T01750169  RH  096%=      5-min Rain = 0
KPD3 240705Z 01006KT 18/17 A2994 RMK A01 T01760169  RH  096%=      5-min Rain = 0
KPD3 240706Z 01005KT 18/17 A2994 RMK A01 T01760169  RH  096%=      5-min Rain = 0
KPD3 240707Z 03004KT 18/17 A2994 RMK A01 T01760169  RH  096%=      5-min Rain = 0
KPD3 240708Z 03004KT 18/17 A2994 RMK A01 T01760169  RH  096%=      5-min Rain = 0.01
KPD3 240709Z 02004KT 18/17 A2994 RMK A01 T01750168  RH  096%=      5-min Rain = 0
KPD3 240710Z 01002KT 18/17 A2995 RMK A01 T01760169  RH  096%=      5-min Rain = 0
KPD3 240711Z 21002KT 18/17 A2995 RMK A01 T01760169  RH  096%=      5-min Rain = 0
KPD3 240712Z 21002KT 18/17 A2996 RMK A01 T01760170  RH  096%=      5-min Rain = 0
KPD3 240713Z 23002KT 18/17 A2996 RMK A01 T01760170  RH  096%=      5-min Rain = 0
KPD3 240714Z 24002KT 18/17 A2997 RMK A01 T01760170  RH  096%=      5-min Rain = 0
KPD3 240715Z 26002KT 18/17 A2997 RMK A01 T01760170  RH  096%=      5-min Rain = 0
KPD3 240716Z 26000KT 18/17 A2997 RMK A01 T01770171  RH  096%=      5-min Rain = 0
KPD3 240717Z 00000KT 18/17 A2997 RMK A01 T01770171  RH  096%=      5-min Rain = 0
KPD3 240718Z 27001KT 18/17 A2997 RMK A01 T01770171  RH  096%=      5-min Rain = 0
KPD3 240719Z 27005KT 18/17 A2997 RMK A01 T01770171  RH  096%=      5-min Rain = 0
KPD3 240720Z 28006KT 18/17 A2997 RMK A01 T01770172  RH  096%=      5-min Rain = 0
KPD3 240721Z 29004KT 18/17 A2996 RMK A01 T01780172  RH  096%=      5-min Rain = 0.01
KPD3 240722Z 28004KT 18/17 A2996 RMK A01 T01780172  RH  096%=      5-min Rain = 0
KPD3 240723Z 27004KT 18/17 A2996 RMK A01 T01780172  RH  097%=      5-min Rain = 0
KPD3 240724Z 27002KT 18/17 A2996 RMK A01 T01780172  RH  097%=      5-min Rain = 0
KPD3 240725Z 28002KT 18/17 A2995 RMK A01 T01780173  RH  097%=      5-min Rain = 0
KPD3 240726Z 30003KT 18/17 A2995 RMK A01 T01780173  RH  097%=      5-min Rain = 0
KPD3 240727Z 33004KT 18/17 A2994 RMK A01 T01780172  RH  097%=      5-min Rain = 0
KPD3 240728Z 34005KT 18/17 A2994 RMK A01 T01780173  RH  097%=      5-min Rain = 0
KPD3 240729Z 01005KT 18/17 A2993 RMK A01 T01780173  RH  097%=      5-min Rain = 0
KPD3 240730Z 02005KT 18/17 A2992 RMK A01 T01780173  RH  097%=      5-min Rain = 0
KPD3 240731Z 02007KT 18/17 A2992 RMK A01 T01780173  RH  097%=      5-min Rain = 0.01
KPD3 240732Z 03007KT 18/17 A2992 RMK A01 T01770172  RH  097%=      5-min Rain = 0
KPD3 240733Z 04005KT 18/17 A2992 RMK A01 T01770171  RH  097%=      5-min Rain = 0
KPD3 240734Z 04005KT 18/17 A2992 RMK A01 T01760171  RH  097%=      5-min Rain = 0
KPD3 240735Z 04007KT 18/17 A2991 RMK A01 T01760170  RH  097%=      5-min Rain = 0
KPD3 240736Z 06010KT 18/17 A299 RMK A01 T01760170  RH  097%=      5-min Rain = 0
KPD3 240737Z 07011KT 18/17 A299 RMK A01 T01750169  RH  097%=      5-min Rain = 0
KPD3 240738Z 08009KT 18/17 A299 RMK A01 T01750170  RH  097%=      5-min Rain = 0
KPD3 240739Z 08011KT 18/17 A2989 RMK A01 T01750170  RH  097%=      5-min Rain = 0
KPD3 240740Z 08008KT 18/17 A2989 RMK A01 T01750170  RH  097%=      5-min Rain = 0
KPD3 240741Z 08009KT 18/17 A2989 RMK A01 T01750170  RH  097%=      5-min Rain = 0
KPD3 240742Z 08008KT 18/17 A2989 RMK A01 T01750170  RH  097%=      5-min Rain = 0
KPD3 240743Z 08008KT 18/17 A2989 RMK A01 T01750169  RH  097%=      5-min Rain = 0
KPD3 240744Z 09008KT 18/17 A2989 RMK A01 T01750170  RH  096%=      5-min Rain = 0
KPD3 240745Z 10011KT 18/17 A2989 RMK A01 T01760170  RH  096%=      5-min Rain = 0
KPD3 240746Z 09013KT 18/17 A2988 RMK A01 T01760170  RH  096%=      5-min Rain = 0
KPD3 240747Z 10011KT 18/17 A2988 RMK A01 T01760169  RH  096%=      5-min Rain = 0
KPD3 240748Z 10011KT 18/17 A2988 RMK A01 T01770169  RH  095%=      5-min Rain = 0
KPD3 240749Z 09010KT 18/17 A2988 RMK A01 T01770169  RH  095%=      5-min Rain = 0
KPD3 240750Z 10010KT 18/17 A2989 RMK A01 T01790170  RH  094%=      5-min Rain = 0
KPD3 240751Z 11012KT 18/17 A2989 RMK A01 T01810170  RH  094%=      5-min Rain = 0
KPD3 240752Z 11011KT 18/17 A2989 RMK A01 T01820170  RH  093%=      5-min Rain = 0
KPD3 240753Z 12010KT 18/17 A2989 RMK A01 T01820170  RH  093%=      5-min Rain = 0
KPD3 240754Z 12011KT 18/17 A2987 RMK A01 T01810168  RH  092%=      5-min Rain = 0
KPD3 240755Z 10010KT 18/17 A2987 RMK A01 T01830169  RH  092%=      5-min Rain = 0
KPD3 240756Z 11011KT 18/17 A2987 RMK A01 T01820170  RH  092%=      5-min Rain = 0
KPD3 240757Z 12013KT 18/17 A2987 RMK A01 T01820169  RH  092%=      5-min Rain = 0
KPD3 240758Z 12014KT 18/16 A2987 RMK A01 T01830164  RH  089%=      5-min Rain = 0
KPD3 240759Z 12011KT 19/16 A2987 RMK A01 T01870163  RH  086%=      5-min Rain = 0
KPD3 240800Z 13009KT 19/16 A2987 RMK A01 T01890162  RH  084%=      5-min Rain = 0
KPD3 240801Z 14010KT 19/16 A2988 RMK A01 T01900161  RH  083%=      5-min Rain = 0
KPD3 240802Z 17011KT 19/16 A2988 RMK A01 T01930158  RH  080%=      5-min Rain = 0
KPD3 240803Z 15006KT 20/16 A2988 RMK A01 T01950159  RH  079%=      5-min Rain = 0
KPD3 240804Z 14006KT 20/16 A2987 RMK A01 T01960163  RH  081%=      5-min Rain = 0
KPD3 240805Z 14008KT 19/16 A2987 RMK A01 T01940161  RH  081%=      5-min Rain = 0
KPD3 240806Z 16010KT 19/16 A2988 RMK A01 T01930161  RH  082%=      5-min Rain = 0
KPD3 240807Z 17010KT 19/16 A2989 RMK A01 T01930161  RH  082%=      5-min Rain = 0
KPD3 240808Z 16008KT 19/16 A2988 RMK A01 T01920162  RH  082%=      5-min Rain = 0
KPD3 240809Z 16007KT 19/16 A2987 RMK A01 T01910161  RH  082%=      5-min Rain = 0
KPD3 240810Z 18007KT 19/16 A2988 RMK A01 T01910161  RH  083%=      5-min Rain = 0
KPD3 240811Z 19008KT 19/16 A2989 RMK A01 T01900161  RH  083%=      5-min Rain = 0
KPD3 240812Z 19009KT 19/16 A2989 RMK A01 T01900161  RH  083%=      5-min Rain = 0
KPD3 240813Z 18009KT 19/16 A2989 RMK A01 T01890161  RH  084%=      5-min Rain = 0
KPD3 240814Z 18010KT 19/16 A2989 RMK A01 T01890160  RH  084%=      5-min Rain = 0
KPD3 240815Z 17009KT 19/16 A2989 RMK A01 T01890160  RH  084%=      5-min Rain = 0
KPD3 240816Z 17010KT 19/16 A2989 RMK A01 T01880160  RH  084%=      5-min Rain = 0
KPD3 240817Z 17012KT 19/16 A299 RMK A01 T01890160  RH  083%=      5-min Rain = 0
KPD3 240818Z 18012KT 19/16 A2991 RMK A01 T01890159  RH  083%=      5-min Rain = 0
KPD3 240819Z 19011KT 19/16 A2991 RMK A01 T01890160  RH  083%=      5-min Rain = 0
KPD3 240820Z 20010KT 19/16 A2992 RMK A01 T01890161  RH  084%=      5-min Rain = 0
KPD3 240821Z 21010KT 19/16 A2992 RMK A01 T01880162  RH  084%=      5-min Rain = 0
KPD3 240822Z 22010KT 19/16 A2992 RMK A01 T01880163  RH  085%=      5-min Rain = 0
KPD3 240823Z 22009KT 19/16 A2992 RMK A01 T01870163  RH  086%=      5-min Rain = 0
KPD3 240824Z 22008KT 19/16 A2992 RMK A01 T01860162  RH  086%=      5-min Rain = 0
KPD3 240825Z 22008KT 19/16 A2992 RMK A01 T01860163  RH  086%=      5-min Rain = 0
KPD3 240826Z 22009KT 19/16 A2992 RMK A01 T01850163  RH  087%=      5-min Rain = 0
KPD3 240827Z 22008KT 19/16 A2992 RMK A01 T01850163  RH  087%=      5-min Rain = 0
KPD3 240828Z 22009KT 19/16 A2992 RMK A01 T01850162  RH  086%=      5-min Rain = 0
KPD3 240829Z 22010KT 19/16 A2992 RMK A01 T01860161  RH  086%=      5-min Rain = 0
KPD3 240830Z 21010KT 19/16 A2992 RMK A01 T01870161  RH  085%=      5-min Rain = 0
KPD3 240831Z 21008KT 19/16 A2992 RMK A01 T01870162  RH  085%=      5-min Rain = 0
KPD3 240832Z 21009KT 19/16 A2992 RMK A01 T01870162  RH  085%=      5-min Rain = 0
KPD3 240833Z 22009KT 19/16 A2992 RMK A01 T01870162  RH  086%=      5-min Rain = 0
KPD3 240834Z 22010KT 19/16 A2992 RMK A01 T01860163  RH  086%=      5-min Rain = 0
KPD3 240835Z 23010KT 19/16 A2992 RMK A01 T01860163  RH  087%=      5-min Rain = 0
KPD3 240836Z 23010KT 19/16 A2993 RMK A01 T01850163  RH  087%=      5-min Rain = 0
KPD3 240837Z 23009KT 18/16 A2992 RMK A01 T01840163  RH  087%=      5-min Rain = 0
KPD3 240838Z 24009KT 18/16 A2992 RMK A01 T01840163  RH  088%=      5-min Rain = 0
KPD3 240839Z 22008KT 18/16 A2992 RMK A01 T01840162  RH  087%=      5-min Rain = 0
KPD3 240840Z 22006KT 18/16 A2991 RMK A01 T01840162  RH  087%=      5-min Rain = 0
KPD3 240841Z 22008KT 18/16 A2992 RMK A01 T01840162  RH  087%=      5-min Rain = 0
KPD3 240842Z 23011KT 18/16 A2993 RMK A01 T01840162  RH  087%=      5-min Rain = 0
KPD3 240843Z 22014KT 18/16 A2993 RMK A01 T01840162  RH  087%=      5-min Rain = 0
KPD3 240844Z 20011KT 19/16 A2994 RMK A01 T01850161  RH  086%=      5-min Rain = 0
KPD3 240845Z 20011KT 19/16 A2994 RMK A01 T01860162  RH  086%=      5-min Rain = 0
KPD3 240846Z 20010KT 19/16 A2994 RMK A01 T01860162  RH  086%=      5-min Rain = 0
KPD3 240847Z 20010KT 19/16 A2993 RMK A01 T01850163  RH  087%=      5-min Rain = 0
KPD3 240848Z 20009KT 18/16 A2992 RMK A01 T01840163  RH  087%=      5-min Rain = 0
KPD3 240849Z 20009KT 18/16 A2993 RMK A01 T01840163  RH  088%=      5-min Rain = 0
KPD3 240850Z 20011KT 18/16 A2993 RMK A01 T01840164  RH  088%=      5-min Rain = 0
KPD3 240851Z 18010KT 18/17 A2993 RMK A01 T01840165  RH  089%=      5-min Rain = 0
KPD3 240852Z 18008KT 18/17 A2993 RMK A01 T01840165  RH  089%=      5-min Rain = 0
KPD3 240853Z 18009KT 18/17 A2993 RMK A01 T01840165  RH  089%=      5-min Rain = 0
KPD3 240854Z 19010KT 18/17 A2993 RMK A01 T01830165  RH  089%=      5-min Rain = 0
KPD3 240855Z 19009KT 18/17 A2992 RMK A01 T01820166  RH  090%=      5-min Rain = 0
KPD3 240856Z 19009KT 18/17 A2992 RMK A01 T01820167  RH  091%=      5-min Rain = 0
KPD3 240857Z 19009KT 18/17 A2992 RMK A01 T01820169  RH  092%=      5-min Rain = 0
KPD3 240858Z 19009KT 18/17 A2992 RMK A01 T01810171  RH  093%=      5-min Rain = 0
KPD3 240859Z 19008KT 18/17 A2992 RMK A01 T01820172  RH  094%=      5-min Rain = 0
KPD3 240900Z 19006KT 18/17 A2991 RMK A01 T01820172  RH  094%=      5-min Rain = 0
KPD3 240901Z 19006KT 18/17 A2991 RMK A01 T01810172  RH  094%=      5-min Rain = 0
KPD3 240902Z 19008KT 18/17 A2991 RMK A01 T01810172  RH  094%=      5-min Rain = 0
KPD3 240903Z 20007KT 18/17 A2992 RMK A01 T01810172  RH  094%=      5-min Rain = 0
KPD3 240904Z 19008KT 18/17 A2993 RMK A01 T01810172  RH  095%=      5-min Rain = 0
KPD3 240905Z 19007KT 18/17 A2993 RMK A01 T01810172  RH  095%=      5-min Rain = 0
KPD3 240906Z 19006KT 18/17 A2993 RMK A01 T01810172  RH  095%=      5-min Rain = 0
KPD3 240907Z 20006KT 18/17 A2993 RMK A01 T01810173  RH  095%=      5-min Rain = 0
KPD3 240908Z 20006KT 18/17 A2993 RMK A01 T01810173  RH  095%=      5-min Rain = 0
KPD3 240909Z 21005KT 18/17 A2993 RMK A01 T01810173  RH  095%=      5-min Rain = 0
KPD3 240910Z 21005KT 18/17 A2993 RMK A01 T01810173  RH  095%=      5-min Rain = 0
KPD3 240911Z 21007KT 18/17 A2993 RMK A01 T01810173  RH  095%=      5-min Rain = 0
KPD3 240912Z 20007KT 18/17 A2993 RMK A01 T01800173  RH  096%=      5-min Rain = 0
KPD3 240913Z 19005KT 18/17 A2994 RMK A01 T01810174  RH  096%=      5-min Rain = 0
KPD3 240914Z 19005KT 18/17 A2994 RMK A01 T01810174  RH  096%=      5-min Rain = 0
KPD3 240915Z 18006KT 18/17 A2994 RMK A01 T01800174  RH  096%=      5-min Rain = 0
KPD3 240916Z 18005KT 18/17 A2994 RMK A01 T01810174  RH  096%=      5-min Rain = 0
KPD3 240917Z 17005KT 18/17 A2994 RMK A01 T01800174  RH  096%=      5-min Rain = 0
KPD3 240918Z 18005KT 18/18 A2993 RMK A01 T01810175  RH  096%=      5-min Rain = 0
KPD3 240919Z 18005KT 18/18 A2993 RMK A01 T01810175  RH  096%=      5-min Rain = 0
KPD3 240920Z 17004KT 18/18 A2993 RMK A01 T01810175  RH  096%=      5-min Rain = 0
KPD3 240921Z 18003KT 18/18 A2993 RMK A01 T01810175  RH  097%=      5-min Rain = 0
KPD3 240922Z 18004KT 18/18 A2993 RMK A01 T01810175  RH  097%=      5-min Rain = 0
KPD3 240923Z 19005KT 18/18 A2994 RMK A01 T01810175  RH  097%=      5-min Rain = 0
KPD3 240924Z 19006KT 18/18 A2994 RMK A01 T01810175  RH  097%=      5-min Rain = 0
KPD3 240925Z 19007KT 18/18 A2994 RMK A01 T01810175  RH  097%=      5-min Rain = 0
KPD3 240926Z 19005KT 18/18 A2994 RMK A01 T01810175  RH  097%=      5-min Rain = 0
KPD3 240927Z 18005KT 18/18 A2994 RMK A01 T01810175  RH  097%=      5-min Rain = 0
KPD3 240928Z 17004KT 18/18 A2993 RMK A01 T01800175  RH  097%=      5-min Rain = 0
KPD3 240929Z 16003KT 18/18 A2992 RMK A01 T01810175  RH  097%=      5-min Rain = 0
KPD3 240930Z 15004KT 18/18 A2991 RMK A01 T01810175  RH  097%=      5-min Rain = 0
KPD3 240931Z 15003KT 18/18 A2991 RMK A01 T01810175  RH  097%=      5-min Rain = 0
KPD3 240932Z 14003KT 18/18 A2991 RMK A01 T01800175  RH  097%=      5-min Rain = 0
KPD3 240933Z 17003KT 18/18 A2992 RMK A01 T01810175  RH  097%=      5-min Rain = 0
KPD3 240934Z 19004KT 18/17 A2993 RMK A01 T01800174  RH  097%=      5-min Rain = 0
KPD3 240935Z 20005KT 18/18 A2994 RMK A01 T01800175  RH  097%=      5-min Rain = 0
KPD3 240936Z 20006KT 18/18 A2994 RMK A01 T01800175  RH  097%=      5-min Rain = 0
KPD3 240937Z 20006KT 18/18 A2995 RMK A01 T01800175  RH  097%=      5-min Rain = 0
KPD3 240938Z 21005KT 18/18 A2994 RMK A01 T01800175  RH  097%=      5-min Rain = 0
KPD3 240939Z 22004KT 18/18 A2994 RMK A01 T01800175  RH  097%=      5-min Rain = 0
KPD3 240940Z 22003KT 18/18 A2994 RMK A01 T01800175  RH  097%=      5-min Rain = 0
KPD3 240941Z 24003KT 18/18 A2994 RMK A01 T01800175  RH  097%=      5-min Rain = 0
KPD3 240942Z 24004KT 18/18 A2994 RMK A01 T01800175  RH  097%=      5-min Rain = 0
KPD3 240943Z 24005KT 18/18 A2995 RMK A01 T01800175  RH  097%=      5-min Rain = 0
KPD3 240944Z 25005KT 18/18 A2996 RMK A01 T01800175  RH  097%=      5-min Rain = 0
KPD3 240945Z 24005KT 18/18 A2996 RMK A01 T01800175  RH  097%=      5-min Rain = 0
KPD3 240946Z 24005KT 18/18 A2996 RMK A01 T01800175  RH  097%=      5-min Rain = 0
KPD3 240947Z 23004KT 18/18 A2996 RMK A01 T01800175  RH  097%=      5-min Rain = 0
KPD3 240948Z 22004KT 18/18 A2996 RMK A01 T01790175  RH  097%=      5-min Rain = 0
KPD3 240949Z 22004KT 18/17 A2996 RMK A01 T01790174  RH  097%=      5-min Rain = 0
KPD3 240950Z 21004KT 18/18 A2997 RMK A01 T01790175  RH  097%=      5-min Rain = 0
KPD3 240951Z 19004KT 18/17 A2997 RMK A01 T01790174  RH  097%=      5-min Rain = 0
KPD3 240952Z 18004KT 18/17 A2997 RMK A01 T01790174  RH  097%=      5-min Rain = 0
KPD3 240953Z 17005KT 18/17 A2997 RMK A01 T01790174  RH  097%=      5-min Rain = 0
KPD3 240954Z 16005KT 18/17 A2996 RMK A01 T01790174  RH  097%=      5-min Rain = 0
KPD3 240955Z 16004KT 18/17 A2996 RMK A01 T01780174  RH  097%=      5-min Rain = 0
KPD3 240956Z 16004KT 18/17 A2996 RMK A01 T01780174  RH  097%=      5-min Rain = 0
KPD3 240957Z 16003KT 18/17 A2996 RMK A01 T01780173  RH  097%=      5-min Rain = 0
KPD3 240958Z 17003KT 18/17 A2996 RMK A01 T01780173  RH  097%=      5-min Rain = 0
KPD3 240959Z 18002KT 18/17 A2996 RMK A01 T01780173  RH  097%=      5-min Rain = 0
KPD3 241000Z 19003KT 18/17 A2996 RMK A01 T01770173  RH  097%=      5-min Rain = 0
KPD3 241001Z 19002KT 18/17 A2996 RMK A01 T01770173  RH  097%=      5-min Rain = 0
KPD3 241002Z 19002KT 18/17 A2995 RMK A01 T01780173  RH  097%=      5-min Rain = 0
KPD3 241003Z 15002KT 18/17 A2995 RMK A01 T01770172  RH  097%=      5-min Rain = 0
KPD3 241004Z 12004KT 18/17 A2994 RMK A01 T01770172  RH  097%=      5-min Rain = 0
KPD3 241005Z 11006KT 18/17 A2993 RMK A01 T01770173  RH  097%=      5-min Rain = 0
KPD3 241006Z 11008KT 18/17 A2993 RMK A01 T01770172  RH  097%=      5-min Rain = 0
KPD3 241007Z 12008KT 18/17 A2993 RMK A01 T01760172  RH  097%=      5-min Rain = 0
KPD3 241008Z 14008KT 18/17 A2994 RMK A01 T01760172  RH  097%=      5-min Rain = 0
KPD3 241009Z 16009KT 18/17 A2995 RMK A01 T01760172  RH  097%=      5-min Rain = 0
KPD3 241010Z 17009KT 18/17 A2996 RMK A01 T01770172  RH  097%=      5-min Rain = 0
KPD3 241011Z 17009KT 18/17 A2997 RMK A01 T01770172  RH  097%=      5-min Rain = 0
KPD3 241012Z 17006KT 18/17 A2996 RMK A01 T01770172  RH  097%=      5-min Rain = 0
KPD3 241013Z 17003KT 18/17 A2996 RMK A01 T01780172  RH  097%=      5-min Rain = 0
KPD3 241014Z 22003KT 18/17 A2996 RMK A01 T01780172  RH  096%=      5-min Rain = 0
KPD3 241015Z 25003KT 18/17 A2996 RMK A01 T01780172  RH  096%=      5-min Rain = 0
KPD3 241016Z 28003KT 18/17 A2996 RMK A01 T01780172  RH  096%=      5-min Rain = 0
KPD3 241017Z 30002KT 18/17 A2995 RMK A01 T01780172  RH  096%=      5-min Rain = 0
KPD3 241018Z 33002KT 18/17 A2995 RMK A01 T01780172  RH  096%=      5-min Rain = 0
KPD3 241019Z 00001KT 18/17 A2995 RMK A01 T01780172  RH  096%=      5-min Rain = 0
KPD3 241020Z 00000KT 18/17 A2995 RMK A01 T01780172  RH  096%=      5-min Rain = 0
KPD3 241021Z 24002KT 18/17 A2996 RMK A01 T01780172  RH  096%=      5-min Rain = 0
KPD3 241022Z 24006KT 18/17 A2998 RMK A01 T01780172  RH  096%=      5-min Rain = 0
KPD3 241023Z 25009KT 18/17 A2999 RMK A01 T01780171  RH  096%=      5-min Rain = 0
KPD3 241024Z 25010KT 18/17 A30 RMK A01 T01780171  RH  096%=      5-min Rain = 0
KPD3 241025Z 25010KT 18/17 A30 RMK A01 T01780172  RH  096%=      5-min Rain = 0
KPD3 241026Z 25008KT 18/17 A30 RMK A01 T01780172  RH  096%=      5-min Rain = 0
KPD3 241027Z 26004KT 18/17 A2999 RMK A01 T01780172  RH  096%=      5-min Rain = 0
KPD3 241028Z 28002KT 18/17 A2998 RMK A01 T01780172  RH  096%=      5-min Rain = 0
KPD3 241029Z 30000KT 18/17 A2997 RMK A01 T01780172  RH  096%=      5-min Rain = 0
KPD3 241030Z 17000KT 18/17 A2997 RMK A01 T01780172  RH  096%=      5-min Rain = 0
KPD3 241031Z 07001KT 18/17 A2997 RMK A01 T01780171  RH  096%=      5-min Rain = 0
KPD3 241032Z 10003KT 18/17 A2997 RMK A01 T01780171  RH  096%=      5-min Rain = 0
KPD3 241033Z 09004KT 18/17 A2996 RMK A01 T01780171  RH  096%=      5-min Rain = 0
KPD3 241034Z 08004KT 18/17 A2996 RMK A01 T01780171  RH  096%=      5-min Rain = 0
KPD3 241035Z 05002KT 18/17 A2996 RMK A01 T01780171  RH  096%=      5-min Rain = 0
KPD3 241036Z 32002KT 18/17 A2996 RMK A01 T01780172  RH  096%=      5-min Rain = 0
KPD3 241037Z 26002KT 18/17 A2996 RMK A01 T01780171  RH  096%=      5-min Rain = 0
KPD3 241038Z 15003KT 18/17 A2996 RMK A01 T01780171  RH  096%=      5-min Rain = 0
KPD3 241039Z 35001KT 18/17 A2995 RMK A01 T01780168  RH  094%=      5-min Rain = 0
KPD3 241040Z 16003KT 18/17 A2995 RMK A01 T01790166  RH  092%=      5-min Rain = 0
KPD3 241041Z 18005KT 18/17 A2996 RMK A01 T01810165  RH  090%=      5-min Rain = 0
KPD3 241042Z 15005KT 18/17 A2996 RMK A01 T01830167  RH  090%=      5-min Rain = 0
KPD3 241043Z 13004KT 18/17 A2996 RMK A01 T01840168  RH  091%=      5-min Rain = 0
KPD3 241044Z 08004KT 18/17 A2995 RMK A01 T01840169  RH  091%=      5-min Rain = 0
KPD3 241045Z 08004KT 18/17 A2995 RMK A01 T01830170  RH  092%=      5-min Rain = 0
KPD3 241046Z 10003KT 18/17 A2996 RMK A01 T01810170  RH  093%=      5-min Rain = 0
KPD3 241047Z 15004KT 18/17 A2997 RMK A01 T01800170  RH  094%=      5-min Rain = 0
KPD3 241048Z 16003KT 18/17 A2998 RMK A01 T01790169  RH  094%=      5-min Rain = 0
KPD3 241049Z 17004KT 18/17 A2998 RMK A01 T01790169  RH  094%=      5-min Rain = 0
KPD3 241050Z 16002KT 18/17 A2998 RMK A01 T01790169  RH  094%=      5-min Rain = 0
KPD3 241051Z 16002KT 18/17 A2997 RMK A01 T01790169  RH  094%=      5-min Rain = 0
KPD3 241052Z 16002KT 18/17 A2997 RMK A01 T01780169  RH  094%=      5-min Rain = 0
KPD3 241053Z 12002KT 18/17 A2997 RMK A01 T01780169  RH  094%=      5-min Rain = 0
KPD3 241054Z 12001KT 18/17 A2996 RMK A01 T01780169  RH  094%=      5-min Rain = 0
KPD3 241055Z 12001KT 18/17 A2996 RMK A01 T01770168  RH  094%=      5-min Rain = 0
KPD3 241056Z 10002KT 18/17 A2996 RMK A01 T01770168  RH  094%=      5-min Rain = 0
KPD3 241057Z 10004KT 18/17 A2996 RMK A01 T01770168  RH  094%=      5-min Rain = 0
KPD3 241058Z 10005KT 18/17 A2996 RMK A01 T01770168  RH  095%=      5-min Rain = 0
KPD3 241059Z 09005KT 18/17 A2996 RMK A01 T01770168  RH  095%=      5-min Rain = 0
KPD3 241100Z 09005KT 18/17 A2996 RMK A01 T01760168  RH  095%=      5-min Rain = 0
KPD3 241101Z 09006KT 18/17 A2996 RMK A01 T01760168  RH  095%=      5-min Rain = 0
KPD3 241102Z 08005KT 18/17 A2995 RMK A01 T01760168  RH  095%=      5-min Rain = 0
KPD3 241103Z 08006KT 18/17 A2995 RMK A01 T01750168  RH  096%=      5-min Rain = 0
KPD3 241104Z 08005KT 18/17 A2995 RMK A01 T01750168  RH  096%=      5-min Rain = 0
KPD3 241105Z 07005KT 18/17 A2995 RMK A01 T01750168  RH  096%=      5-min Rain = 0
KPD3 241106Z 06004KT 18/17 A2995 RMK A01 T01750168  RH  096%=      5-min Rain = 0
KPD3 241107Z 03003KT 17/17 A2996 RMK A01 T01740168  RH  096%=      5-min Rain = 0
KPD3 241108Z 35002KT 17/17 A2997 RMK A01 T01740168  RH  096%=      5-min Rain = 0
KPD3 241109Z 32002KT 17/17 A2997 RMK A01 T01740169  RH  097%=      5-min Rain = 0
KPD3 241110Z 33002KT 17/17 A2997 RMK A01 T01740169  RH  097%=      5-min Rain = 0
KPD3 241111Z 32002KT 17/17 A2997 RMK A01 T01740169  RH  097%=      5-min Rain = 0
KPD3 241112Z 33003KT 17/17 A2997 RMK A01 T01740169  RH  097%=      5-min Rain = 0
KPD3 241113Z 34003KT 17/17 A2996 RMK A01 T01740168  RH  097%=      5-min Rain = 0
KPD3 241114Z 34003KT 17/17 A2996 RMK A01 T01730168  RH  097%=      5-min Rain = 0
KPD3 241115Z 34003KT 17/17 A2996 RMK A01 T01730168  RH  097%=      5-min Rain = 0
KPD3 241116Z 01002KT 17/17 A2996 RMK A01 T01730168  RH  097%=      5-min Rain = 0
KPD3 241117Z 04002KT 17/17 A2996 RMK A01 T01730168  RH  097%=      5-min Rain = 0
KPD3 241118Z 05003KT 17/17 A2996 RMK A01 T01730168  RH  097%=      5-min Rain = 0
KPD3 241119Z 05003KT 17/17 A2996 RMK A01 T01730168  RH  097%=      5-min Rain = 0
KPD3 241120Z 05003KT 17/17 A2996 RMK A01 T01730168  RH  097%=      5-min Rain = 0
KPD3 241121Z 04004KT 17/17 A2996 RMK A01 T01730168  RH  097%=      5-min Rain = 0
KPD3 241122Z 03005KT 17/17 A2996 RMK A01 T01730168  RH  097%=      5-min Rain = 0
KPD3 241123Z 03005KT 17/17 A2996 RMK A01 T01720168  RH  097%=      5-min Rain = 0
KPD3 241124Z 03004KT 17/17 A2996 RMK A01 T01720167  RH  097%=      5-min Rain = 0
KPD3 241125Z 03004KT 17/17 A2996 RMK A01 T01710167  RH  097%=      5-min Rain = 0
KPD3 241126Z 03004KT 17/17 A2996 RMK A01 T01710167  RH  097%=      5-min Rain = 0
KPD3 241127Z 02005KT 17/17 A2995 RMK A01 T01710166  RH  097%=      5-min Rain = 0
KPD3 241128Z 02005KT 17/17 A2995 RMK A01 T01710167  RH  097%=      5-min Rain = 0
KPD3 241129Z 03005KT 17/17 A2995 RMK A01 T01710167  RH  097%=      5-min Rain = 0
KPD3 241130Z 02005KT 17/17 A2995 RMK A01 T01700166  RH  097%=      5-min Rain = 0
KPD3 241131Z 02004KT 17/17 A2995 RMK A01 T01700166  RH  097%=      5-min Rain = 0
KPD3 241132Z 02004KT 17/17 A2995 RMK A01 T01700166  RH  098%=      5-min Rain = 0
KPD3 241133Z 02004KT 17/17 A2995 RMK A01 T01700166  RH  098%=      5-min Rain = 0
KPD3 241134Z 01003KT 17/17 A2996 RMK A01 T01700166  RH  098%=      5-min Rain = 0
KPD3 241135Z 01003KT 17/17 A2996 RMK A01 T01690165  RH  098%=      5-min Rain = 0
KPD3 241136Z 36003KT 17/17 A2996 RMK A01 T01690165  RH  098%=      5-min Rain = 0
KPD3 241137Z 35004KT 17/16 A2996 RMK A01 T01680164  RH  098%=      5-min Rain = 0
KPD3 241138Z 34004KT 17/16 A2996 RMK A01 T01670163  RH  097%=      5-min Rain = 0
KPD3 241139Z 35005KT 17/16 A2996 RMK A01 T01670163  RH  098%=      5-min Rain = 0
KPD3 241140Z 35005KT 17/16 A2995 RMK A01 T01670163  RH  098%=      5-min Rain = 0
KPD3 241141Z 00005KT 17/16 A2995 RMK A01 T01660163  RH  098%=      5-min Rain = 0
KPD3 241142Z 01004KT 17/16 A2996 RMK A01 T01660163  RH  098%=      5-min Rain = 0
KPD3 241143Z 02005KT 17/16 A2996 RMK A01 T01660162  RH  098%=      5-min Rain = 0
KPD3 241144Z 02005KT 17/16 A2996 RMK A01 T01660162  RH  098%=      5-min Rain = 0
KPD3 241145Z 02005KT 17/16 A2996 RMK A01 T01660162  RH  098%=      5-min Rain = 0
KPD3 241146Z 01004KT 17/16 A2996 RMK A01 T01650162  RH  098%=      5-min Rain = 0
KPD3 241147Z 01004KT 17/16 A2996 RMK A01 T01650162  RH  098%=      5-min Rain = 0
KPD3 241148Z 01005KT 17/16 A2996 RMK A01 T01650161  RH  098%=      5-min Rain = 0
KPD3 241149Z 01004KT 17/16 A2996 RMK A01 T01650161  RH  098%=      5-min Rain = 0
KPD3 241150Z 01004KT 16/16 A2996 RMK A01 T01640161  RH  098%=      5-min Rain = 0
KPD3 241151Z 02004KT 16/16 A2996 RMK A01 T01640160  RH  098%=      5-min Rain = 0
KPD3 241152Z 02005KT 16/16 A2996 RMK A01 T01640160  RH  098%=      5-min Rain = 0
KPD3 241153Z 02004KT 16/16 A2996 RMK A01 T01630160  RH  098%=      5-min Rain = 0
KPD3 241154Z 02004KT 16/16 A2997 RMK A01 T01630160  RH  098%=      5-min Rain = 0
KPD3 241155Z 01004KT 16/16 A2997 RMK A01 T01630160  RH  098%=      5-min Rain = 0
KPD3 241156Z 34004KT 16/16 A2997 RMK A01 T01620159  RH  098%=      5-min Rain = 0
KPD3 241157Z 33004KT 16/16 A2998 RMK A01 T01620159  RH  098%=      5-min Rain = 0
KPD3 241158Z 33003KT 16/16 A2998 RMK A01 T01620159  RH  098%=      5-min Rain = 0
KPD3 241159Z 33003KT 16/16 A2998 RMK A01 T01620159  RH  098%=      5-min Rain = 0
KPD3 241200Z 34003KT 16/16 A2998 RMK A01 T01620159  RH  098%=      5-min Rain = 0
KPD3 241201Z 36003KT 16/16 A2998 RMK A01 T01620160  RH  098%=      5-min Rain = 0
KPD3 241202Z 01002KT 16/16 A2998 RMK A01 T01620160  RH  098%=      5-min Rain = 0
KPD3 241203Z 02002KT 16/16 A2998 RMK A01 T01630160  RH  098%=      5-min Rain = 0
KPD3 241204Z 02003KT 16/16 A2998 RMK A01 T01620160  RH  098%=      5-min Rain = 0
KPD3 241205Z 01003KT 16/16 A2998 RMK A01 T01630160  RH  098%=      5-min Rain = 0
KPD3 241206Z 01003KT 16/16 A2998 RMK A01 T01630160  RH  098%=      5-min Rain = 0
KPD3 241207Z 01003KT 16/16 A2998 RMK A01 T01630160  RH  098%=      5-min Rain = 0
KPD3 241208Z 00002KT 16/16 A2998 RMK A01 T01630160  RH  098%=      5-min Rain = 0
KPD3 241209Z 00002KT 16/16 A2998 RMK A01 T01630160  RH  098%=      5-min Rain = 0
KPD3 241210Z 00003KT 16/16 A2998 RMK A01 T01630160  RH  098%=      5-min Rain = 0
KPD3 241211Z 01003KT 16/16 A2997 RMK A01 T01630160  RH  098%=      5-min Rain = 0
KPD3 241212Z 01003KT 16/16 A2997 RMK A01 T01630160  RH  098%=      5-min Rain = 0
KPD3 241213Z 02003KT 16/16 A2997 RMK A01 T01630160  RH  098%=      5-min Rain = 0
KPD3 241214Z 03003KT 16/16 A2997 RMK A01 T01630160  RH  098%=      5-min Rain = 0
KPD3 241215Z 05003KT 16/16 A2997 RMK A01 T01630160  RH  098%=      5-min Rain = 0
KPD3 241216Z 05003KT 16/16 A2997 RMK A01 T01630160  RH  098%=      5-min Rain = 0
KPD3 241217Z 05003KT 16/16 A2997 RMK A01 T01630161  RH  098%=      5-min Rain = 0
KPD3 241218Z 05003KT 16/16 A2997 RMK A01 T01640161  RH  098%=      5-min Rain = 0
KPD3 241219Z 06003KT 16/16 A2997 RMK A01 T01630161  RH  098%=      5-min Rain = 0
KPD3 241220Z 07003KT 16/16 A2998 RMK A01 T01640161  RH  098%=      5-min Rain = 0
KPD3 241221Z 06003KT 16/16 A2998 RMK A01 T01630160  RH  098%=      5-min Rain = 0
KPD3 241222Z 04003KT 16/16 A2997 RMK A01 T01630160  RH  098%=      5-min Rain = 0
KPD3 241223Z 03003KT 16/16 A2997 RMK A01 T01630161  RH  098%=      5-min Rain = 0
KPD3 241224Z 03003KT 16/16 A2997 RMK A01 T01630160  RH  098%=      5-min Rain = 0
KPD3 241225Z 04003KT 16/16 A2997 RMK A01 T01640161  RH  098%=      5-min Rain = 0
KPD3 241226Z 03003KT 16/16 A2997 RMK A01 T01630161  RH  098%=      5-min Rain = 0
KPD3 241227Z 04004KT 16/16 A2997 RMK A01 T01640161  RH  098%=      5-min Rain = 0
KPD3 241228Z 05004KT 16/16 A2997 RMK A01 T01640162  RH  098%=      5-min Rain = 0
KPD3 241229Z 04003KT 17/16 A2998 RMK A01 T01660164  RH  098%=      5-min Rain = 0
KPD3 241230Z 02003KT 17/17 A2997 RMK A01 T01670165  RH  098%=      5-min Rain = 0
KPD3 241231Z 02004KT 17/17 A2997 RMK A01 T01680165  RH  098%=      5-min Rain = 0
KPD3 241232Z 00004KT 17/17 A2997 RMK A01 T01680165  RH  098%=      5-min Rain = 0
KPD3 241233Z 36003KT 17/17 A2997 RMK A01 T01680165  RH  098%=      5-min Rain = 0
KPD3 241234Z 36003KT 17/17 A2998 RMK A01 T01680165  RH  098%=      5-min Rain = 0
KPD3 241235Z 35003KT 17/17 A2998 RMK A01 T01680165  RH  098%=      5-min Rain = 0
KPD3 241236Z 00003KT 17/17 A2998 RMK A01 T01680165  RH  098%=      5-min Rain = 0
KPD3 241237Z 00002KT 17/17 A2998 RMK A01 T01680166  RH  098%=      5-min Rain = 0
KPD3 241238Z 00002KT 17/17 A2998 RMK A01 T01690167  RH  098%=      5-min Rain = 0
KPD3 241239Z 01002KT 17/17 A2998 RMK A01 T01690167  RH  098%=      5-min Rain = 0
KPD3 241240Z 01003KT 17/17 A2998 RMK A01 T01700167  RH  098%=      5-min Rain = 0
KPD3 241241Z 02004KT 17/17 A2998 RMK A01 T01700168  RH  098%=      5-min Rain = 0
KPD3 241242Z 02004KT 17/17 A2997 RMK A01 T01700168  RH  098%=      5-min Rain = 0
KPD3 241243Z 03004KT 17/17 A2997 RMK A01 T01720169  RH  098%=      5-min Rain = 0
KPD3 241244Z 04004KT 17/17 A2997 RMK A01 T01720169  RH  098%=      5-min Rain = 0
KPD3 241245Z 04004KT 17/17 A2998 RMK A01 T01730170  RH  098%=      5-min Rain = 0
KPD3 241246Z 04003KT 17/17 A2998 RMK A01 T01730171  RH  098%=      5-min Rain = 0
KPD3 241247Z 03004KT 17/17 A2998 RMK A01 T01730171  RH  098%=      5-min Rain = 0
KPD3 241248Z 02004KT 17/17 A2998 RMK A01 T01730171  RH  098%=      5-min Rain = 0
KPD3 241249Z 02005KT 17/17 A2998 RMK A01 T01740171  RH  098%=      5-min Rain = 0
KPD3 241250Z 02005KT 17/17 A2998 RMK A01 T01740170  RH  098%=      5-min Rain = 0
KPD3 241251Z 36005KT 17/17 A2998 RMK A01 T01740170  RH  098%=      5-min Rain = 0
KPD3 241252Z 36006KT 17/17 A2997 RMK A01 T01740170  RH  098%=      5-min Rain = 0
KPD3 241253Z 35006KT 17/17 A2997 RMK A01 T01730169  RH  097%=      5-min Rain = 0
KPD3 241254Z 35006KT 17/17 A2997 RMK A01 T01730168  RH  097%=      5-min Rain = 0
KPD3 241255Z 35006KT 17/17 A2998 RMK A01 T01720168  RH  097%=      5-min Rain = 0
KPD3 241256Z 36005KT 17/17 A2998 RMK A01 T01720167  RH  097%=      5-min Rain = 0
KPD3 241257Z 34005KT 17/17 A2998 RMK A01 T01730168  RH  097%=      5-min Rain = 0
KPD3 241258Z 34006KT 17/17 A2998 RMK A01 T01740168  RH  097%=      5-min Rain = 0
KPD3 241259Z 33007KT 17/17 A2998 RMK A01 T01730167  RH  096%=      5-min Rain = 0
KPD3 241300Z 34007KT 17/16 A2998 RMK A01 T01710164  RH  096%=      5-min Rain = 0
KPD3 241301Z 34008KT 17/16 A2998 RMK A01 T01700163  RH  095%=      5-min Rain = 0
KPD3 241302Z 34007KT 17/16 A2998 RMK A01 T01690161  RH  095%=      5-min Rain = 0
KPD3 241303Z 34008KT 17/16 A2998 RMK A01 T01690161  RH  095%=      5-min Rain = 0
KPD3 241304Z 34007KT 17/16 A2998 RMK A01 T01680159  RH  094%=      5-min Rain = 0
KPD3 241305Z 34007KT 17/16 A2998 RMK A01 T01670158  RH  094%=      5-min Rain = 0
KPD3 241306Z 34007KT 17/16 A2998 RMK A01 T01670158  RH  095%=      5-min Rain = 0
KPD3 241307Z 34006KT 17/16 A2998 RMK A01 T01670158  RH  094%=      5-min Rain = 0
KPD3 241308Z 34006KT 17/16 A2998 RMK A01 T01660158  RH  094%=      5-min Rain = 0
KPD3 241309Z 34005KT 17/16 A2998 RMK A01 T01670158  RH  095%=      5-min Rain = 0
KPD3 241310Z 34004KT 17/16 A2999 RMK A01 T01680159  RH  095%=      5-min Rain = 0
KPD3 241311Z 34004KT 17/16 A2999 RMK A01 T01680160  RH  095%=      5-min Rain = 0
KPD3 241312Z 34005KT 17/16 A2998 RMK A01 T01680160  RH  095%=      5-min Rain = 0
KPD3 241313Z 34006KT 17/16 A2998 RMK A01 T01690160  RH  095%=      5-min Rain = 0
KPD3 241314Z 34007KT 17/16 A2998 RMK A01 T01700161  RH  095%=      5-min Rain = 0
KPD3 241315Z 33005KT 17/16 A2998 RMK A01 T01700161  RH  094%=      5-min Rain = 0
KPD3 241316Z 34006KT 17/16 A2998 RMK A01 T01710163  RH  095%=      5-min Rain = 0
KPD3 241317Z 34007KT 17/16 A2998 RMK A01 T01720163  RH  095%=      5-min Rain = 0
KPD3 241318Z 33007KT 17/16 A2998 RMK A01 T01720163  RH  094%=      5-min Rain = 0
KPD3 241319Z 33006KT 17/16 A2999 RMK A01 T01730163  RH  094%=      5-min Rain = 0
KPD3 241320Z 33007KT 17/16 A2999 RMK A01 T01740164  RH  094%=      5-min Rain = 0
KPD3 241321Z 34007KT 17/16 A2999 RMK A01 T01740164  RH  094%=      5-min Rain = 0
KPD3 241322Z 33006KT 17/16 A2999 RMK A01 T01740163  RH  094%=      5-min Rain = 0
KPD3 241323Z 32005KT 17/16 A2999 RMK A01 T01740163  RH  093%=      5-min Rain = 0
KPD3 241324Z 32005KT 17/16 A2999 RMK A01 T01740163  RH  093%=      5-min Rain = 0
KPD3 241325Z 33005KT 18/17 A2999 RMK A01 T01750165  RH  094%=      5-min Rain = 0
KPD3 241326Z 33005KT 18/17 A2999 RMK A01 T01760165  RH  094%=      5-min Rain = 0
KPD3 241327Z 33006KT 18/17 A2999 RMK A01 T01760166  RH  094%=      5-min Rain = 0
KPD3 241328Z 33006KT 18/17 A2999 RMK A01 T01770166  RH  094%=      5-min Rain = 0
KPD3 241329Z 33006KT 18/17 A2999 RMK A01 T01770166  RH  093%=      5-min Rain = 0
KPD3 241330Z 32005KT 18/17 A2999 RMK A01 T01770167  RH  093%=      5-min Rain = 0
KPD3 241331Z 33006KT 18/17 A2999 RMK A01 T01780167  RH  093%=      5-min Rain = 0
KPD3 241332Z 31005KT 18/17 A2999 RMK A01 T01780168  RH  094%=      5-min Rain = 0
KPD3 241333Z 32006KT 18/17 A2999 RMK A01 T01790168  RH  093%=      5-min Rain = 0
KPD3 241334Z 32006KT 18/17 A2999 RMK A01 T01790167  RH  093%=      5-min Rain = 0
KPD3 241335Z 32006KT 18/17 A2999 RMK A01 T01790166  RH  092%=      5-min Rain = 0
KPD3 241336Z 32006KT 18/17 A2999 RMK A01 T01790166  RH  092%=      5-min Rain = 0
KPD3 241337Z 32006KT 18/17 A2999 RMK A01 T01800167  RH  092%=      5-min Rain = 0
KPD3 241338Z 33006KT 18/17 A2999 RMK A01 T01800167  RH  092%=      5-min Rain = 0
KPD3 241339Z 33005KT 18/17 A2999 RMK A01 T01810167  RH  092%=      5-min Rain = 0
KPD3 241340Z 34005KT 18/17 A2998 RMK A01 T01810168  RH  092%=      5-min Rain = 0
KPD3 241341Z 34005KT 18/17 A2998 RMK A01 T01820167  RH  091%=      5-min Rain = 0
KPD3 241342Z 35004KT 18/17 A2998 RMK A01 T01820168  RH  091%=      5-min Rain = 0
KPD3 241343Z 35004KT 18/17 A2998 RMK A01 T01830171  RH  093%=      5-min Rain = 0
KPD3 241344Z 35006KT 18/17 A2998 RMK A01 T01840172  RH  093%=      5-min Rain = 0
KPD3 241345Z 35006KT 18/17 A2998 RMK A01 T01840169  RH  091%=      5-min Rain = 0
KPD3 241346Z 35007KT 18/17 A2998 RMK A01 T01830167  RH  090%=      5-min Rain = 0
KPD3 241347Z 36005KT 18/17 A2998 RMK A01 T01830168  RH  091%=      5-min Rain = 0
KPD3 241348Z 36005KT 18/17 A2998 RMK A01 T01830169  RH  091%=      5-min Rain = 0
KPD3 241349Z 00005KT 18/17 A2998 RMK A01 T01840171  RH  092%=      5-min Rain = 0
KPD3 241350Z 35006KT 18/17 A2998 RMK A01 T01840169  RH  091%=      5-min Rain = 0
KPD3 241351Z 35005KT 18/17 A2998 RMK A01 T01840168  RH  090%=      5-min Rain = 0
KPD3 241352Z 36006KT 18/17 A2998 RMK A01 T01840168  RH  091%=      5-min Rain = 0
KPD3 241353Z 35006KT 18/17 A2998 RMK A01 T01840168  RH  090%=      5-min Rain = 0
KPD3 241354Z 35005KT 18/17 A2998 RMK A01 T01840169  RH  091%=      5-min Rain = 0
KPD3 241355Z 36006KT 19/17 A2998 RMK A01 T01850170  RH  091%=      5-min Rain = 0
KPD3 241356Z 35006KT 19/17 A2998 RMK A01 T01860170  RH  091%=      5-min Rain = 0
KPD3 241357Z 35005KT 19/17 A2998 RMK A01 T01860170  RH  090%=      5-min Rain = 0
KPD3 241358Z 34006KT 19/17 A2998 RMK A01 T01860170  RH  090%=      5-min Rain = 0
KPD3 241359Z 34006KT 19/17 A2998 RMK A01 T01860170  RH  090%=      5-min Rain = 0
KPD3 241400Z 34006KT 19/17 A2998 RMK A01 T01860169  RH  090%=      5-min Rain = 0
KPD3 241401Z 35006KT 19/17 A2998 RMK A01 T01860170  RH  090%=      5-min Rain = 0
KPD3 241402Z 35005KT 19/17 A2998 RMK A01 T01860170  RH  090%=      5-min Rain = 0
KPD3 241403Z 00006KT 19/17 A2998 RMK A01 T01870171  RH  090%=      5-min Rain = 0
KPD3 241404Z 01007KT 19/17 A2998 RMK A01 T01880171  RH  090%=      5-min Rain = 0
KPD3 241405Z 02007KT 19/17 A2998 RMK A01 T01880171  RH  090%=      5-min Rain = 0
KPD3 241406Z 02007KT 19/17 A2998 RMK A01 T01890170  RH  089%=      5-min Rain = 0
KPD3 241407Z 02007KT 19/17 A2998 RMK A01 T01890171  RH  089%=      5-min Rain = 0
KPD3 241408Z 02007KT 19/17 A2998 RMK A01 T01890170  RH  089%=      5-min Rain = 0
KPD3 241409Z 02006KT 19/17 A2998 RMK A01 T01890169  RH  088%=      5-min Rain = 0
KPD3 241410Z 01006KT 19/17 A2998 RMK A01 T01890170  RH  089%=      5-min Rain = 0
KPD3 241411Z 02006KT 19/17 A2998 RMK A01 T01900172  RH  089%=      5-min Rain = 0
KPD3 241412Z 03006KT 19/17 A2998 RMK A01 T01910170  RH  088%=      5-min Rain = 0
KPD3 241413Z 01006KT 19/17 A2998 RMK A01 T01910169  RH  087%=      5-min Rain = 0
KPD3 241414Z 01005KT 19/17 A2998 RMK A01 T01920172  RH  088%=      5-min Rain = 0
KPD3 241415Z 01005KT 19/17 A2998 RMK A01 T01930171  RH  087%=      5-min Rain = 0
KPD3 241416Z 04005KT 19/17 A2998 RMK A01 T01930170  RH  087%=      5-min Rain = 0
KPD3 241417Z 04006KT 19/17 A2998 RMK A01 T01940174  RH  088%=      5-min Rain = 0
KPD3 241418Z 03006KT 19/17 A2998 RMK A01 T01940171  RH  086%=      5-min Rain = 0
KPD3 241419Z 02006KT 19/17 A2998 RMK A01 T01930171  RH  087%=      5-min Rain = 0
KPD3 241420Z 03005KT 19/17 A2998 RMK A01 T01930168  RH  086%=      5-min Rain = 0
KPD3 241421Z 02005KT 19/17 A2998 RMK A01 T01920168  RH  086%=      5-min Rain = 0
KPD3 241422Z 01005KT 19/17 A2998 RMK A01 T01930172  RH  087%=      5-min Rain = 0
KPD3 241423Z 01006KT 20/17 A2998 RMK A01 T01950172  RH  087%=      5-min Rain = 0
KPD3 241424Z 00005KT 20/17 A2998 RMK A01 T01960171  RH  085%=      5-min Rain = 0
KPD3 241425Z 00005KT 20/17 A2998 RMK A01 T01960168  RH  084%=      5-min Rain = 0
KPD3 241426Z 01005KT 20/17 A2998 RMK A01 T01960169  RH  084%=      5-min Rain = 0
KPD3 241427Z 01005KT 20/17 A2999 RMK A01 T01960170  RH  085%=      5-min Rain = 0
KPD3 241428Z 35005KT 20/17 A2998 RMK A01 T01970172  RH  086%=      5-min Rain = 0
KPD3 241429Z 00005KT 20/17 A2998 RMK A01 T01990174  RH  086%=      5-min Rain = 0
KPD3 241430Z 02006KT 20/18 A2998 RMK A01 T02010176  RH  085%=      5-min Rain = 0
KPD3 241431Z 01005KT 20/17 A2998 RMK A01 T02030173  RH  083%=      5-min Rain = 0
KPD3 241432Z 01005KT 20/17 A2998 RMK A01 T02030170  RH  081%=      5-min Rain = 0
KPD3 241433Z 01004KT 20/17 A2998 RMK A01 T02010169  RH  082%=      5-min Rain = 0
KPD3 241434Z 00003KT 20/17 A2998 RMK A01 T02010169  RH  082%=      5-min Rain = 0
KPD3 241435Z 01005KT 20/17 A2998 RMK A01 T02010169  RH  082%=      5-min Rain = 0
KPD3 241436Z 02005KT 20/17 A2998 RMK A01 T02000171  RH  083%=      5-min Rain = 0
KPD3 241437Z 03005KT 20/17 A2998 RMK A01 T02000174  RH  085%=      5-min Rain = 0
KPD3 241438Z 02004KT 20/17 A2998 RMK A01 T02010171  RH  083%=      5-min Rain = 0
KPD3 241439Z 02004KT 20/17 A2999 RMK A01 T02010172  RH  083%=      5-min Rain = 0
KPD3 241440Z 01003KT 20/17 A2999 RMK A01 T02020170  RH  082%=      5-min Rain = 0
KPD3 241441Z 01004KT 20/17 A2998 RMK A01 T02010172  RH  083%=      5-min Rain = 0
KPD3 241442Z 35003KT 20/17 A2998 RMK A01 T02020172  RH  083%=      5-min Rain = 0
KPD3 241443Z 34004KT 20/17 A2998 RMK A01 T02030171  RH  082%=      5-min Rain = 0
KPD3 241444Z 00004KT 20/17 A2998 RMK A01 T02040172  RH  082%=      5-min Rain = 0
KPD3 241445Z 35003KT 21/17 A2998 RMK A01 T02050172  RH  081%=      5-min Rain = 0
KPD3 241446Z 35003KT 21/17 A2998 RMK A01 T02050170  RH  080%=      5-min Rain = 0
KPD3 241447Z 01005KT 20/17 A2998 RMK A01 T02040172  RH  081%=      5-min Rain = 0
KPD3 241448Z 01003KT 20/17 A2998 RMK A01 T02040172  RH  082%=      5-min Rain = 0
KPD3 241449Z 06003KT 20/17 A2998 RMK A01 T02040172  RH  082%=      5-min Rain = 0
KPD3 241450Z 06002KT 20/17 A2998 RMK A01 T02040171  RH  082%=      5-min Rain = 0
KPD3 241451Z 05004KT 20/17 A2998 RMK A01 T02040171  RH  082%=      5-min Rain = 0
KPD3 241452Z 05004KT 20/17 A2998 RMK A01 T02040171  RH  081%=      5-min Rain = 0
KPD3 241453Z 04004KT 21/17 A2997 RMK A01 T02050174  RH  083%=      5-min Rain = 0
KPD3 241454Z 03003KT 21/17 A2997 RMK A01 T02050171  RH  081%=      5-min Rain = 0
KPD3 241455Z 05003KT 21/17 A2997 RMK A01 T02050172  RH  081%=      5-min Rain = 0
KPD3 241456Z 05005KT 21/18 A2997 RMK A01 T02060175  RH  082%=      5-min Rain = 0
KPD3 241457Z 05003KT 21/17 A2998 RMK A01 T02060174  RH  081%=      5-min Rain = 0
KPD3 241458Z 04002KT 21/17 A2998 RMK A01 T02060174  RH  082%=      5-min Rain = 0
KPD3 241459Z 01002KT 21/17 A2998 RMK A01 T02060174  RH  082%=      5-min Rain = 0
KPD3 241500Z 03003KT 21/17 A2998 RMK A01 T02060174  RH  082%=      5-min Rain = 0
KPD3 241501Z 07003KT 21/18 A2998 RMK A01 T02050175  RH  083%=      5-min Rain = 0
KPD3 241502Z 10002KT 21/18 A2998 RMK A01 T02050175  RH  083%=      5-min Rain = 0
KPD3 241503Z 08002KT 20/18 A2998 RMK A01 T02040176  RH  084%=      5-min Rain = 0
KPD3 241504Z 06003KT 20/17 A2998 RMK A01 T02040173  RH  082%=      5-min Rain = 0
KPD3 241505Z 06003KT 20/17 A2998 RMK A01 T02030174  RH  083%=      5-min Rain = 0
KPD3 241506Z 06003KT 20/17 A2998 RMK A01 T02030174  RH  084%=      5-min Rain = 0
KPD3 241507Z 07002KT 20/18 A2998 RMK A01 T02020176  RH  085%=      5-min Rain = 0
KPD3 241508Z 06002KT 20/17 A2998 RMK A01 T02020174  RH  084%=      5-min Rain = 0
KPD3 241509Z 06003KT 20/17 A2998 RMK A01 T02020173  RH  083%=      5-min Rain = 0
KPD3 241510Z 06004KT 20/17 A2998 RMK A01 T02010173  RH  084%=      5-min Rain = 0
KPD3 241511Z 06004KT 20/17 A2997 RMK A01 T02010173  RH  084%=      5-min Rain = 0
KPD3 241512Z 06003KT 20/17 A2997 RMK A01 T02010174  RH  085%=      5-min Rain = 0
KPD3 241513Z 04003KT 20/18 A2998 RMK A01 T02010175  RH  085%=      5-min Rain = 0
KPD3 241514Z 04003KT 20/17 A2998 RMK A01 T02010173  RH  084%=      5-min Rain = 0
KPD3 241515Z 05003KT 20/17 A2998 RMK A01 T02010173  RH  084%=      5-min Rain = 0
KPD3 241516Z 07002KT 20/17 A2998 RMK A01 T02020173  RH  084%=      5-min Rain = 0
KPD3 241517Z 06002KT 20/17 A2998 RMK A01 T02010173  RH  084%=      5-min Rain = 0
KPD3 241518Z 06002KT 20/17 A2998 RMK A01 T02010174  RH  084%=      5-min Rain = 0
KPD3 241519Z 06004KT 20/17 A2998 RMK A01 T02010174  RH  084%=      5-min Rain = 0
KPD3 241520Z 05003KT 20/17 A2997 RMK A01 T02010173  RH  084%=      5-min Rain = 0
KPD3 241521Z 05003KT 20/17 A2997 RMK A01 T02000172  RH  084%=      5-min Rain = 0
KPD3 241522Z 04002KT 20/17 A2997 RMK A01 T02000171  RH  084%=      5-min Rain = 0
KPD3 241523Z 05003KT 20/17 A2998 RMK A01 T02000174  RH  085%=      5-min Rain = 0
KPD3 241524Z 06002KT 20/17 A2998 RMK A01 T02000174  RH  085%=      5-min Rain = 0
KPD3 241525Z 06003KT 20/17 A2998 RMK A01 T02000174  RH  085%=      5-min Rain = 0
KPD3 241526Z 07003KT 20/17 A2998 RMK A01 T02000172  RH  084%=      5-min Rain = 0
KPD3 241527Z 07003KT 20/17 A2998 RMK A01 T02000173  RH  084%=      5-min Rain = 0
KPD3 241528Z 07002KT 20/17 A2998 RMK A01 T01990172  RH  084%=      5-min Rain = 0
KPD3 241529Z 06002KT 20/17 A2998 RMK A01 T01990173  RH  085%=      5-min Rain = 0
KPD3 241530Z 08003KT 20/17 A2998 RMK A01 T01990174  RH  085%=      5-min Rain = 0
KPD3 241531Z 07003KT 20/17 A2998 RMK A01 T02000173  RH  085%=      5-min Rain = 0
KPD3 241532Z 07003KT 20/18 A2998 RMK A01 T01990175  RH  086%=      5-min Rain = 0
KPD3 241533Z 07003KT 20/18 A2998 RMK A01 T02000175  RH  086%=      5-min Rain = 0
KPD3 241534Z 08003KT 20/17 A2998 RMK A01 T02000173  RH  085%=      5-min Rain = 0
KPD3 241535Z 10003KT 20/17 A2998 RMK A01 T02000172  RH  084%=      5-min Rain = 0
KPD3 241536Z 08003KT 20/17 A2998 RMK A01 T02000172  RH  084%=      5-min Rain = 0
KPD3 241537Z 08003KT 20/17 A2998 RMK A01 T02000172  RH  084%=      5-min Rain = 0
KPD3 241538Z 08003KT 20/17 A2998 RMK A01 T01990173  RH  085%=      5-min Rain = 0
KPD3 241539Z 07003KT 20/17 A2998 RMK A01 T02000173  RH  085%=      5-min Rain = 0
KPD3 241540Z 07004KT 20/17 A2998 RMK A01 T01990174  RH  085%=      5-min Rain = 0
KPD3 241541Z 06004KT 20/18 A2998 RMK A01 T01990175  RH  086%=      5-min Rain = 0
KPD3 241542Z 06005KT 20/18 A2998 RMK A01 T02000176  RH  086%=      5-min Rain = 0
KPD3 241543Z 06004KT 20/17 A2998 RMK A01 T02000173  RH  085%=      5-min Rain = 0
KPD3 241544Z 06003KT 20/18 A2998 RMK A01 T01990175  RH  086%=      5-min Rain = 0
KPD3 241545Z 07003KT 20/17 A2998 RMK A01 T01990173  RH  085%=      5-min Rain = 0
KPD3 241546Z 06003KT 20/17 A2998 RMK A01 T01980173  RH  085%=      5-min Rain = 0
KPD3 241547Z 05004KT 20/18 A2998 RMK A01 T01980175  RH  086%=      5-min Rain = 0
KPD3 241548Z 04003KT 20/17 A2998 RMK A01 T01980173  RH  085%=      5-min Rain = 0
KPD3 241549Z 05004KT 20/17 A2998 RMK A01 T01980174  RH  086%=      5-min Rain = 0
KPD3 241550Z 05004KT 20/18 A2998 RMK A01 T01970176  RH  088%=      5-min Rain = 0
KPD3 241551Z 05004KT 20/18 A2998 RMK A01 T01980176  RH  087%=      5-min Rain = 0
KPD3 241552Z 04004KT 20/17 A2998 RMK A01 T01970173  RH  086%=      5-min Rain = 0
KPD3 241553Z 02004KT 20/17 A2998 RMK A01 T01970174  RH  086%=      5-min Rain = 0
KPD3 241554Z 03004KT 20/18 A2998 RMK A01 T01970175  RH  087%=      5-min Rain = 0
KPD3 241555Z 03004KT 20/18 A2998 RMK A01 T01980175  RH  087%=      5-min Rain = 0
KPD3 241556Z 02004KT 20/18 A2998 RMK A01 T01970177  RH  088%=      5-min Rain = 0
KPD3 241557Z 02004KT 20/18 A2998 RMK A01 T01970177  RH  088%=      5-min Rain = 0
KPD3 241558Z 01004KT 20/17 A2998 RMK A01 T01970174  RH  087%=      5-min Rain = 0
KPD3 241559Z 36004KT 20/18 A2998 RMK A01 T01960175  RH  087%=      5-min Rain = 0
KPD3 241600Z 00004KT 20/17 A2998 RMK A01 T01960174  RH  087%=      5-min Rain = 0
KPD3 241601Z 00004KT 20/17 A2998 RMK A01 T01950174  RH  088%=      5-min Rain = 0
KPD3 241602Z 35004KT 20/18 A2998 RMK A01 T01950175  RH  088%=      5-min Rain = 0
KPD3 241603Z 36003KT 20/17 A2998 RMK A01 T01950174  RH  088%=      5-min Rain = 0
KPD3 241604Z 36004KT 19/17 A2998 RMK A01 T01940174  RH  088%=      5-min Rain = 0
KPD3 241605Z 01003KT 19/18 A2998 RMK A01 T01940175  RH  089%=      5-min Rain = 0
KPD3 241606Z 00005KT 20/18 A2998 RMK A01 T01950175  RH  089%=      5-min Rain = 0
KPD3 241607Z 35005KT 19/18 A2998 RMK A01 T01940175  RH  088%=      5-min Rain = 0
KPD3 241608Z 36005KT 19/18 A2998 RMK A01 T01940176  RH  089%=      5-min Rain = 0
KPD3 241609Z 00005KT 19/18 A2998 RMK A01 T01940177  RH  090%=      5-min Rain = 0
KPD3 241610Z 00006KT 19/18 A2998 RMK A01 T01930176  RH  089%=      5-min Rain = 0
KPD3 241611Z 36005KT 19/18 A2998 RMK A01 T01930175  RH  089%=      5-min Rain = 0
KPD3 241612Z 36005KT 19/17 A2999 RMK A01 T01920174  RH  089%=      5-min Rain = 0
KPD3 241613Z 36005KT 19/18 A2999 RMK A01 T01920175  RH  090%=      5-min Rain = 0
KPD3 241614Z 00005KT 19/18 A2999 RMK A01 T01920175  RH  090%=      5-min Rain = 0
KPD3 241615Z 00005KT 19/18 A2999 RMK A01 T01920175  RH  090%=      5-min Rain = 0
KPD3 241616Z 00004KT 19/18 A2999 RMK A01 T01920177  RH  091%=      5-min Rain = 0
KPD3 241617Z 00004KT 19/18 A2999 RMK A01 T01920178  RH  092%=      5-min Rain = 0
KPD3 241618Z 36003KT 19/18 A2999 RMK A01 T01920176  RH  091%=      5-min Rain = 0
KPD3 241619Z 35003KT 19/18 A2999 RMK A01 T01920177  RH  091%=      5-min Rain = 0
KPD3 241620Z 34004KT 19/18 A2999 RMK A01 T01920178  RH  092%=      5-min Rain = 0
KPD3 241621Z 01005KT 19/18 A2999 RMK A01 T01920177  RH  091%=      5-min Rain = 0
KPD3 241622Z 01004KT 19/18 A2999 RMK A01 T01920176  RH  091%=      5-min Rain = 0
KPD3 241623Z 00003KT 19/18 A2999 RMK A01 T01920176  RH  091%=      5-min Rain = 0
KPD3 241624Z 00003KT 19/18 A2999 RMK A01 T01920177  RH  091%=      5-min Rain = 0
KPD3 241625Z 36003KT 19/18 A2999 RMK A01 T01930176  RH  090%=      5-min Rain = 0
KPD3 241626Z 35003KT 19/18 A2999 RMK A01 T01930176  RH  090%=      5-min Rain = 0
KPD3 241627Z 36003KT 19/18 A2999 RMK A01 T01920175  RH  090%=      5-min Rain = 0
KPD3 241628Z 35003KT 19/18 A2999 RMK A01 T01920175  RH  090%=      5-min Rain = 0
KPD3 241629Z 35004KT 19/18 A2999 RMK A01 T01920175  RH  090%=      5-min Rain = 0
KPD3 241630Z 35004KT 19/18 A2999 RMK A01 T01920175  RH  090%=      5-min Rain = 0
KPD3 241631Z 35005KT 19/18 A2999 RMK A01 T01920176  RH  091%=      5-min Rain = 0
KPD3 241632Z 34005KT 19/18 A2999 RMK A01 T01920175  RH  090%=      5-min Rain = 0
KPD3 241633Z 34004KT 19/18 A2999 RMK A01 T01920175  RH  090%=      5-min Rain = 0
KPD3 241634Z 34004KT 19/18 A2999 RMK A01 T01920176  RH  091%=      5-min Rain = 0
KPD3 241635Z 34004KT 19/18 A2999 RMK A01 T01920178  RH  091%=      5-min Rain = 0
KPD3 241636Z 35004KT 19/18 A2999 RMK A01 T01920177  RH  091%=      5-min Rain = 0
KPD3 241637Z 35005KT 19/18 A2999 RMK A01 T01920177  RH  091%=      5-min Rain = 0
KPD3 241638Z 35004KT 19/18 A2999 RMK A01 T01920177  RH  091%=      5-min Rain = 0
KPD3 241639Z 35003KT 19/18 A2999 RMK A01 T01920177  RH  091%=      5-min Rain = 0
KPD3 241640Z 34005KT 19/18 A2999 RMK A01 T01910176  RH  091%=      5-min Rain = 0
KPD3 241641Z 34004KT 19/18 A2999 RMK A01 T01910176  RH  091%=      5-min Rain = 0
KPD3 241642Z 35005KT 19/18 A2999 RMK A01 T01910177  RH  092%=      5-min Rain = 0
KPD3 241643Z 35005KT 19/18 A2999 RMK A01 T01910177  RH  091%=      5-min Rain = 0
KPD3 241644Z 35005KT 19/18 A2999 RMK A01 T01910176  RH  091%=      5-min Rain = 0
KPD3 241645Z 34005KT 19/18 A2999 RMK A01 T01910176  RH  091%=      5-min Rain = 0
KPD3 241646Z 33004KT 19/18 A2999 RMK A01 T01910177  RH  092%=      5-min Rain = 0
KPD3 241647Z 34004KT 19/18 A2999 RMK A01 T01910177  RH  092%=      5-min Rain = 0
KPD3 241648Z 33004KT 19/18 A2999 RMK A01 T01910177  RH  092%=      5-min Rain = 0
KPD3 241649Z 34004KT 19/18 A2999 RMK A01 T01910177  RH  092%=      5-min Rain = 0
KPD3 241650Z 34004KT 19/18 A2999 RMK A01 T01910177  RH  091%=      5-min Rain = 0
KPD3 241651Z 34004KT 19/18 A2999 RMK A01 T01910178  RH  092%=      5-min Rain = 0
KPD3 241652Z 34003KT 19/18 A2999 RMK A01 T01910177  RH  092%=      5-min Rain = 0
KPD3 241653Z 34004KT 19/18 A2999 RMK A01 T01910177  RH  091%=      5-min Rain = 0
KPD3 241654Z 34003KT 19/18 A2999 RMK A01 T01910177  RH  091%=      5-min Rain = 0
KPD3 241655Z 34003KT 19/18 A2999 RMK A01 T01920177  RH  091%=      5-min Rain = 0
KPD3 241656Z 34003KT 19/18 A2999 RMK A01 T01920178  RH  091%=      5-min Rain = 0
KPD3 241657Z 35004KT 19/18 A2999 RMK A01 T01920177  RH  091%=      5-min Rain = 0
KPD3 241658Z 35003KT 19/18 A2999 RMK A01 T01920177  RH  091%=      5-min Rain = 0
KPD3 241659Z 35003KT 19/18 A2999 RMK A01 T01920179  RH  092%=      5-min Rain = 0
KPD3 241700Z 00003KT 19/18 A2999 RMK A01 T01920178  RH  092%=      5-min Rain = 0
KPD3 241701Z 00003KT 19/18 A2999 RMK A01 T01920178  RH  091%=      5-min Rain = 0
KPD3 241702Z 00004KT 19/18 A2999 RMK A01 T01920179  RH  092%=      5-min Rain = 0
KPD3 241703Z 01003KT 19/18 A2999 RMK A01 T01920179  RH  092%=      5-min Rain = 0
KPD3 241704Z 35003KT 19/18 A2999 RMK A01 T01920180  RH  093%=      5-min Rain = 0
KPD3 241705Z 36003KT 19/18 A2999 RMK A01 T01920180  RH  093%=      5-min Rain = 0
KPD3 241706Z 36003KT 19/18 A2999 RMK A01 T01920180  RH  093%=      5-min Rain = 0
KPD3 241707Z 35004KT 19/18 A2999 RMK A01 T01920180  RH  093%=      5-min Rain = 0
KPD3 241708Z 34005KT 19/18 A2999 RMK A01 T01930180  RH  092%=      5-min Rain = 0
KPD3 241709Z 33004KT 19/18 A2999 RMK A01 T01920179  RH  092%=      5-min Rain = 0
KPD3 241710Z 34004KT 19/18 A2999 RMK A01 T01920179  RH  092%=      5-min Rain = 0
KPD3 241711Z 33005KT 19/18 A2999 RMK A01 T01920180  RH  093%=      5-min Rain = 0
KPD3 241712Z 35005KT 19/18 A2999 RMK A01 T01930182  RH  093%=      5-min Rain = 0
KPD3 241713Z 34005KT 19/18 A2999 RMK A01 T01930181  RH  093%=      5-min Rain = 0
KPD3 241714Z 33004KT 19/18 A2999 RMK A01 T01920180  RH  093%=      5-min Rain = 0
KPD3 241715Z 34004KT 19/18 A2999 RMK A01 T01920181  RH  093%=      5-min Rain = 0
KPD3 241716Z 33003KT 19/18 A2999 RMK A01 T01910179  RH  093%=      5-min Rain = 0
KPD3 241717Z 34003KT 19/18 A2999 RMK A01 T01910181  RH  094%=      5-min Rain = 0
KPD3 241718Z 34003KT 19/18 A2999 RMK A01 T01930183  RH  094%=      5-min Rain = 0
KPD3 241719Z 34004KT 19/18 A2999 RMK A01 T01940184  RH  094%=      5-min Rain = 0
KPD3 241720Z 35005KT 19/18 A2999 RMK A01 T01940181  RH  092%=      5-min Rain = 0
KPD3 241721Z 36005KT 19/18 A2999 RMK A01 T01930180  RH  092%=      5-min Rain = 0
KPD3 241722Z 35005KT 19/18 A2999 RMK A01 T01930180  RH  092%=      5-min Rain = 0
KPD3 241723Z 34004KT 19/18 A2999 RMK A01 T01930181  RH  092%=      5-min Rain = 0
KPD3 241724Z 33004KT 19/18 A2999 RMK A01 T01940181  RH  092%=      5-min Rain = 0
KPD3 241725Z 35004KT 19/18 A2999 RMK A01 T01940180  RH  092%=      5-min Rain = 0
KPD3 241726Z 35004KT 19/18 A2999 RMK A01 T01930180  RH  092%=      5-min Rain = 0
KPD3 241727Z 36004KT 19/18 A2999 RMK A01 T01940180  RH  092%=      5-min Rain = 0
KPD3 241728Z 00003KT 20/18 A2999 RMK A01 T01950182  RH  092%=      5-min Rain = 0
KPD3 241729Z 00004KT 20/18 A2999 RMK A01 T01950181  RH  092%=      5-min Rain = 0
KPD3 241730Z 36003KT 20/18 A2999 RMK A01 T01950178  RH  090%=      5-min Rain = 0
KPD3 241731Z 35004KT 19/18 A2999 RMK A01 T01940179  RH  091%=      5-min Rain = 0
KPD3 241732Z 35004KT 20/18 A2999 RMK A01 T01950181  RH  092%=      5-min Rain = 0
KPD3 241733Z 33003KT 20/18 A2999 RMK A01 T01950180  RH  091%=      5-min Rain = 0
KPD3 241734Z 33003KT 19/18 A2999 RMK A01 T01940179  RH  091%=      5-min Rain = 0
KPD3 241735Z 34002KT 19/18 A2999 RMK A01 T01940178  RH  090%=      5-min Rain = 0
KPD3 241736Z 34002KT 19/18 A2999 RMK A01 T01940178  RH  090%=      5-min Rain = 0
KPD3 241737Z 36003KT 19/18 A2999 RMK A01 T01940179  RH  091%=      5-min Rain = 0
KPD3 241738Z 00003KT 19/18 A2999 RMK A01 T01940180  RH  091%=      5-min Rain = 0
KPD3 241739Z 01002KT 20/18 A2999 RMK A01 T01950181  RH  092%=      5-min Rain = 0
KPD3 241740Z 02002KT 20/18 A2998 RMK A01 T01950180  RH  091%=      5-min Rain = 0
KPD3 241741Z 36003KT 20/18 A2998 RMK A01 T01960182  RH  091%=      5-min Rain = 0
KPD3 241742Z 36004KT 20/18 A2998 RMK A01 T01980182  RH  091%=      5-min Rain = 0
KPD3 241743Z 35004KT 20/18 A2998 RMK A01 T01990183  RH  090%=      5-min Rain = 0
KPD3 241744Z 36004KT 20/19 A2998 RMK A01 T02000186  RH  091%=      5-min Rain = 0
KPD3 241745Z 36003KT 20/18 A2998 RMK A01 T02010183  RH  089%=      5-min Rain = 0
KPD3 241746Z 35003KT 20/18 A2998 RMK A01 T02000181  RH  089%=      5-min Rain = 0
KPD3 241747Z 34003KT 20/18 A2998 RMK A01 T01990182  RH  089%=      5-min Rain = 0
KPD3 241748Z 34003KT 20/18 A2998 RMK A01 T01990181  RH  090%=      5-min Rain = 0
KPD3 241749Z 00003KT 20/18 A2998 RMK A01 T01980181  RH  090%=      5-min Rain = 0
KPD3 241750Z 01003KT 20/18 A2998 RMK A01 T01980181  RH  090%=      5-min Rain = 0
KPD3 241751Z 36002KT 20/18 A2998 RMK A01 T01960180  RH  090%=      5-min Rain = 0
KPD3 241752Z 35002KT 20/18 A2998 RMK A01 T01960182  RH  092%=      5-min Rain = 0
KPD3 241753Z 36003KT 20/18 A2998 RMK A01 T01960182  RH  091%=      5-min Rain = 0
KPD3 241754Z 02003KT 20/18 A2998 RMK A01 T01970183  RH  092%=      5-min Rain = 0
KPD3 241755Z 02003KT 20/18 A2998 RMK A01 T01970183  RH  091%=      5-min Rain = 0
KPD3 241756Z 00003KT 20/19 A2998 RMK A01 T01990185  RH  092%=      5-min Rain = 0
KPD3 241757Z 36002KT 20/18 A2998 RMK A01 T01990183  RH  090%=      5-min Rain = 0
KPD3 241758Z 35002KT 20/18 A2998 RMK A01 T02000183  RH  090%=      5-min Rain = 0
KPD3 241759Z 34003KT 20/18 A2998 RMK A01 T02010184  RH  090%=      5-min Rain = 0
KPD3 241800Z 34003KT 20/18 A2998 RMK A01 T02020184  RH  090%=      5-min Rain = 0
KPD3 241801Z 36003KT 20/18 A2998 RMK A01 T02020184  RH  090%=      5-min Rain = 0
KPD3 241802Z 01002KT 20/18 A2998 RMK A01 T02020183  RH  089%=      5-min Rain = 0
KPD3 241803Z 02002KT 20/18 A2998 RMK A01 T02020181  RH  088%=      5-min Rain = 0
KPD3 241804Z 35003KT 20/18 A2998 RMK A01 T02020182  RH  088%=      5-min Rain = 0
KPD3 241805Z 34002KT 20/18 A2998 RMK A01 T02020183  RH  088%=      5-min Rain = 0
KPD3 241806Z 00003KT 20/19 A2998 RMK A01 T02030185  RH  089%=      5-min Rain = 0
KPD3 241807Z 00002KT 20/18 A2998 RMK A01 T02030184  RH  089%=      5-min Rain = 0
KPD3 241808Z 00003KT 20/18 A2998 RMK A01 T02040184  RH  088%=      5-min Rain = 0
KPD3 241809Z 02003KT 20/19 A2998 RMK A01 T02040185  RH  089%=      5-min Rain = 0
KPD3 241810Z 01003KT 20/19 A2998 RMK A01 T02040186  RH  090%=      5-min Rain = 0
KPD3 241811Z 01002KT 20/19 A2998 RMK A01 T02040185  RH  088%=      5-min Rain = 0
KPD3 241812Z 36003KT 20/18 A2998 RMK A01 T02040184  RH  088%=      5-min Rain = 0
KPD3 241813Z 35002KT 20/18 A2997 RMK A01 T02040184  RH  088%=      5-min Rain = 0
KPD3 241814Z 01001KT 20/19 A2997 RMK A01 T02040185  RH  089%=      5-min Rain = 0
KPD3 241815Z 04002KT 21/19 A2997 RMK A01 T02050185  RH  088%=      5-min Rain = 0
KPD3 241816Z 03002KT 21/19 A2997 RMK A01 T02060187  RH  089%=      5-min Rain = 0
KPD3 241817Z 03002KT 21/18 A2997 RMK A01 T02070184  RH  087%=      5-min Rain = 0
KPD3 241818Z 02004KT 21/19 A2997 RMK A01 T02090187  RH  087%=      5-min Rain = 0
KPD3 241819Z 35004KT 21/19 A2997 RMK A01 T02100190  RH  088%=      5-min Rain = 0
KPD3 241820Z 34004KT 21/19 A2997 RMK A01 T02110187  RH  086%=      5-min Rain = 0
KPD3 241821Z 31003KT 21/19 A2997 RMK A01 T02100185  RH  085%=      5-min Rain = 0
KPD3 241822Z 35002KT 21/19 A2997 RMK A01 T02090185  RH  086%=      5-min Rain = 0
KPD3 241823Z 32002KT 21/19 A2997 RMK A01 T02090186  RH  087%=      5-min Rain = 0
KPD3 241824Z 32002KT 21/19 A2997 RMK A01 T02090186  RH  087%=      5-min Rain = 0
KPD3 241825Z 34002KT 21/19 A2997 RMK A01 T02090187  RH  087%=      5-min Rain = 0
KPD3 241826Z 33001KT 21/19 A2997 RMK A01 T02090185  RH  086%=      5-min Rain = 0
KPD3 241827Z 30001KT 21/19 A2997 RMK A01 T02090185  RH  086%=      5-min Rain = 0
KPD3 241828Z 30004KT 21/19 A2997 RMK A01 T02090186  RH  087%=      5-min Rain = 0
KPD3 241829Z 31003KT 21/19 A2997 RMK A01 T02080187  RH  087%=      5-min Rain = 0
KPD3 241830Z 31003KT 21/19 A2997 RMK A01 T02080186  RH  087%=      5-min Rain = 0
KPD3 241831Z 33003KT 21/19 A2997 RMK A01 T02080188  RH  088%=      5-min Rain = 0
KPD3 241832Z 34004KT 21/19 A2997 RMK A01 T02080188  RH  088%=      5-min Rain = 0
KPD3 241833Z 34004KT 21/19 A2997 RMK A01 T02080188  RH  088%=      5-min Rain = 0
KPD3 241834Z 33003KT 21/19 A2997 RMK A01 T02090190  RH  089%=      5-min Rain = 0
KPD3 241835Z 32004KT 21/19 A2997 RMK A01 T02100189  RH  088%=      5-min Rain = 0
KPD3 241836Z 31004KT 21/19 A2997 RMK A01 T02100190  RH  089%=      5-min Rain = 0
KPD3 241837Z 31003KT 21/19 A2997 RMK A01 T02100187  RH  087%=      5-min Rain = 0
KPD3 241838Z 30003KT 21/19 A2997 RMK A01 T02090186  RH  087%=      5-min Rain = 0
KPD3 241839Z 31003KT 21/19 A2997 RMK A01 T02090187  RH  087%=      5-min Rain = 0
KPD3 241840Z 33004KT 21/19 A2997 RMK A01 T02080188  RH  088%=      5-min Rain = 0
KPD3 241841Z 00003KT 21/19 A2997 RMK A01 T02090188  RH  088%=      5-min Rain = 0
KPD3 241842Z 03003KT 21/19 A2997 RMK A01 T02090188  RH  087%=      5-min Rain = 0
KPD3 241843Z 02004KT 21/19 A2996 RMK A01 T02100190  RH  088%=      5-min Rain = 0
KPD3 241844Z 35003KT 21/19 A2996 RMK A01 T02100188  RH  087%=      5-min Rain = 0
KPD3 241845Z 35002KT 21/19 A2996 RMK A01 T02110189  RH  087%=      5-min Rain = 0
KPD3 241846Z 01003KT 21/19 A2996 RMK A01 T02110189  RH  087%=      5-min Rain = 0
KPD3 241847Z 03002KT 21/19 A2996 RMK A01 T02110189  RH  087%=      5-min Rain = 0
KPD3 241848Z 02002KT 21/19 A2996 RMK A01 T02110188  RH  087%=      5-min Rain = 0
KPD3 241849Z 02003KT 21/19 A2996 RMK A01 T02110189  RH  087%=      5-min Rain = 0
KPD3 241850Z 03003KT 21/19 A2996 RMK A01 T02110189  RH  087%=      5-min Rain = 0
KPD3 241851Z 07003KT 21/19 A2996 RMK A01 T02110190  RH  087%=      5-min Rain = 0
KPD3 241852Z 06002KT 21/19 A2995 RMK A01 T02110189  RH  087%=      5-min Rain = 0
KPD3 241853Z 01003KT 21/19 A2995 RMK A01 T02120191  RH  088%=      5-min Rain = 0
KPD3 241854Z 02004KT 21/19 A2995 RMK A01 T02120191  RH  088%=      5-min Rain = 0
KPD3 241855Z 03006KT 21/19 A2995 RMK A01 T02120192  RH  088%=      5-min Rain = 0
KPD3 241856Z 03007KT 21/19 A2995 RMK A01 T02130192  RH  088%=      5-min Rain = 0
KPD3 241857Z 04006KT 21/19 A2995 RMK A01 T02120191  RH  087%=      5-min Rain = 0
KPD3 241858Z 05006KT 21/19 A2996 RMK A01 T02110189  RH  087%=      5-min Rain = 0
KPD3 241859Z 05005KT 21/19 A2996 RMK A01 T02100188  RH  087%=      5-min Rain = 0
KPD3 241900Z 04004KT 21/19 A2996 RMK A01 T02090188  RH  088%=      5-min Rain = 0
KPD3 241901Z 04003KT 21/19 A2996 RMK A01 T02090188  RH  088%=      5-min Rain = 0
KPD3 241902Z 02003KT 21/19 A2996 RMK A01 T02090190  RH  089%=      5-min Rain = 0
KPD3 241903Z 35003KT 21/19 A2996 RMK A01 T02090190  RH  089%=      5-min Rain = 0
KPD3 241904Z 01005KT 21/19 A2996 RMK A01 T02100190  RH  088%=      5-min Rain = 0
KPD3 241905Z 02004KT 21/19 A2996 RMK A01 T02100189  RH  088%=      5-min Rain = 0
KPD3 241906Z 01003KT 21/19 A2996 RMK A01 T02090189  RH  088%=      5-min Rain = 0
KPD3 241907Z 02003KT 21/19 A2996 RMK A01 T02100190  RH  088%=      5-min Rain = 0
KPD3 241908Z 02003KT 21/19 A2995 RMK A01 T02100188  RH  087%=      5-min Rain = 0
KPD3 241909Z 03003KT 21/19 A2995 RMK A01 T02100189  RH  088%=      5-min Rain = 0
KPD3 241910Z 01004KT 21/19 A2995 RMK A01 T02110192  RH  089%=      5-min Rain = 0
KPD3 241911Z 00004KT 21/19 A2995 RMK A01 T02120190  RH  087%=      5-min Rain = 0
KPD3 241912Z 00003KT 21/19 A2995 RMK A01 T02120191  RH  087%=      5-min Rain = 0
KPD3 241913Z 02003KT 21/19 A2995 RMK A01 T02130192  RH  088%=      5-min Rain = 0
KPD3 241914Z 00003KT 21/19 A2996 RMK A01 T02140192  RH  087%=      5-min Rain = 0
KPD3 241915Z 35002KT 21/19 A2996 RMK A01 T02140189  RH  085%=      5-min Rain = 0
KPD3 241916Z 02003KT 21/19 A2996 RMK A01 T02140189  RH  086%=      5-min Rain = 0
KPD3 241917Z 01002KT 21/19 A2996 RMK A01 T02140191  RH  087%=      5-min Rain = 0
KPD3 241918Z 02004KT 21/19 A2996 RMK A01 T02140192  RH  087%=      5-min Rain = 0
KPD3 241919Z 02005KT 22/19 A2996 RMK A01 T02150193  RH  087%=      5-min Rain = 0
KPD3 241920Z 03005KT 22/19 A2996 RMK A01 T02160193  RH  087%=      5-min Rain = 0
KPD3 241921Z 03004KT 22/19 A2996 RMK A01 T02170193  RH  086%=      5-min Rain = 0
KPD3 241922Z 06003KT 22/19 A2996 RMK A01 T02170193  RH  087%=      5-min Rain = 0
KPD3 241923Z 05004KT 22/19 A2996 RMK A01 T02160193  RH  086%=      5-min Rain = 0
KPD3 241924Z 03005KT 22/19 A2996 RMK A01 T02160193  RH  087%=      5-min Rain = 0
KPD3 241925Z 03005KT 22/19 A2996 RMK A01 T02160194  RH  087%=      5-min Rain = 0
KPD3 241926Z 02005KT 22/19 A2996 RMK A01 T02150193  RH  088%=      5-min Rain = 0
KPD3 241927Z 03004KT 21/19 A2996 RMK A01 T02140193  RH  088%=      5-min Rain = 0
KPD3 241928Z 02005KT 21/19 A2996 RMK A01 T02130193  RH  088%=      5-min Rain = 0
KPD3 241929Z 03005KT 21/19 A2996 RMK A01 T02120192  RH  088%=      5-min Rain = 0
KPD3 241930Z 03005KT 21/19 A2996 RMK A01 T02110192  RH  089%=      5-min Rain = 0
KPD3 241931Z 03005KT 21/19 A2996 RMK A01 T02110192  RH  089%=      5-min Rain = 0
KPD3 241932Z 04005KT 21/19 A2996 RMK A01 T02110192  RH  089%=      5-min Rain = 0
KPD3 241933Z 03005KT 21/19 A2995 RMK A01 T02100191  RH  089%=      5-min Rain = 0
KPD3 241934Z 02005KT 21/19 A2995 RMK A01 T02090191  RH  089%=      5-min Rain = 0
KPD3 241935Z 02004KT 21/19 A2995 RMK A01 T02090191  RH  089%=      5-min Rain = 0
KPD3 241936Z 02004KT 21/19 A2995 RMK A01 T02090191  RH  089%=      5-min Rain = 0
KPD3 241937Z 02005KT 21/19 A2995 RMK A01 T02090192  RH  090%=      5-min Rain = 0
KPD3 241938Z 01005KT 21/19 A2995 RMK A01 T02090192  RH  090%=      5-min Rain = 0
KPD3 241939Z 01005KT 21/19 A2995 RMK A01 T02100193  RH  090%=      5-min Rain = 0
KPD3 241940Z 01006KT 21/19 A2995 RMK A01 T02100193  RH  090%=      5-min Rain = 0
KPD3 241941Z 01006KT 21/19 A2995 RMK A01 T02100192  RH  089%=      5-min Rain = 0
KPD3 241942Z 01005KT 21/19 A2995 RMK A01 T02100192  RH  090%=      5-min Rain = 0
KPD3 241943Z 02005KT 21/19 A2995 RMK A01 T02100193  RH  090%=      5-min Rain = 0
KPD3 241944Z 02004KT 21/19 A2995 RMK A01 T02100193  RH  090%=      5-min Rain = 0
KPD3 241945Z 04004KT 21/19 A2995 RMK A01 T02100192  RH  090%=      5-min Rain = 0
KPD3 241946Z 05004KT 21/19 A2995 RMK A01 T02100193  RH  090%=      5-min Rain = 0
KPD3 241947Z 05004KT 21/19 A2995 RMK A01 T02090192  RH  090%=      5-min Rain = 0
KPD3 241948Z 05004KT 21/19 A2995 RMK A01 T02090192  RH  090%=      5-min Rain = 0
KPD3 241949Z 05004KT 21/19 A2995 RMK A01 T02090192  RH  090%=      5-min Rain = 0
KPD3 241950Z 05004KT 21/19 A2994 RMK A01 T02090193  RH  090%=      5-min Rain = 0
KPD3 241951Z 05004KT 21/19 A2994 RMK A01 T02080193  RH  091%=      5-min Rain = 0
KPD3 241952Z 05004KT 21/19 A2994 RMK A01 T02090193  RH  091%=      5-min Rain = 0
KPD3 241953Z 06004KT 21/19 A2994 RMK A01 T02080192  RH  090%=      5-min Rain = 0
KPD3 241954Z 07005KT 21/19 A2994 RMK A01 T02080192  RH  090%=      5-min Rain = 0
KPD3 241955Z 06004KT 21/19 A2994 RMK A01 T02080192  RH  091%=      5-min Rain = 0
KPD3 241956Z 06005KT 21/19 A2994 RMK A01 T02080193  RH  091%=      5-min Rain = 0
KPD3 241957Z 06005KT 21/19 A2994 RMK A01 T02080192  RH  091%=      5-min Rain = 0
KPD3 241958Z 06004KT 21/19 A2994 RMK A01 T02070191  RH  091%=      5-min Rain = 0
KPD3 241959Z 05004KT 21/19 A2994 RMK A01 T02070192  RH  091%=      5-min Rain = 0
KPD3 242000Z 03004KT 21/19 A2994 RMK A01 T02070192  RH  091%=      5-min Rain = 0
KPD3 242001Z 04005KT 21/19 A2993 RMK A01 T02070193  RH  091%=      5-min Rain = 0
KPD3 242002Z 03005KT 21/19 A2993 RMK A01 T02070193  RH  091%=      5-min Rain = 0
KPD3 242003Z 03005KT 21/19 A2993 RMK A01 T02070193  RH  092%=      5-min Rain = 0
KPD3 242004Z 03005KT 21/19 A2993 RMK A01 T02070193  RH  092%=      5-min Rain = 0
KPD3 242005Z 03005KT 21/19 A2993 RMK A01 T02070193  RH  092%=      5-min Rain = 0
KPD3 242006Z 03005KT 21/19 A2993 RMK A01 T02070194  RH  092%=      5-min Rain = 0
KPD3 242007Z 04005KT 21/19 A2993 RMK A01 T02070194  RH  092%=      5-min Rain = 0
KPD3 242008Z 05004KT 21/19 A2993 RMK A01 T02070193  RH  092%=      5-min Rain = 0
KPD3 242009Z 05004KT 21/19 A2993 RMK A01 T02070194  RH  092%=      5-min Rain = 0
KPD3 242010Z 05005KT 21/19 A2993 RMK A01 T02070193  RH  092%=      5-min Rain = 0
KPD3 242011Z 05005KT 21/19 A2993 RMK A01 T02070193  RH  092%=      5-min Rain = 0
KPD3 242012Z 05005KT 21/19 A2993 RMK A01 T02060192  RH  092%=      5-min Rain = 0
KPD3 242013Z 05005KT 21/19 A2993 RMK A01 T02060192  RH  092%=      5-min Rain = 0
KPD3 242014Z 06005KT 21/19 A2993 RMK A01 T02060193  RH  092%=      5-min Rain = 0
KPD3 242015Z 05004KT 21/19 A2993 RMK A01 T02060193  RH  092%=      5-min Rain = 0
KPD3 242016Z 05005KT 21/19 A2994 RMK A01 T02060194  RH  092%=      5-min Rain = 0
KPD3 242017Z 05004KT 21/19 A2994 RMK A01 T02060194  RH  093%=      5-min Rain = 0
KPD3 242018Z 06005KT 21/19 A2994 RMK A01 T02060194  RH  093%=      5-min Rain = 0
KPD3 242019Z 07006KT 21/20 A2994 RMK A01 T02060195  RH  093%=      5-min Rain = 0
KPD3 242020Z 07005KT 21/20 A2994 RMK A01 T02060195  RH  093%=      5-min Rain = 0
KPD3 242021Z 07006KT 21/20 A2994 RMK A01 T02060195  RH  093%=      5-min Rain = 0
KPD3 242022Z 06006KT 21/20 A2994 RMK A01 T02060195  RH  093%=      5-min Rain = 0
KPD3 242023Z 06006KT 21/19 A2994 RMK A01 T02060194  RH  093%=      5-min Rain = 0
KPD3 242024Z 06006KT 21/19 A2994 RMK A01 T02060194  RH  093%=      5-min Rain = 0
KPD3 242025Z 04005KT 21/20 A2995 RMK A01 T02060195  RH  093%=      5-min Rain = 0
KPD3 242026Z 04005KT 21/20 A2995 RMK A01 T02050195  RH  094%=      5-min Rain = 0
KPD3 242027Z 03005KT 21/19 A2995 RMK A01 T02050194  RH  094%=      5-min Rain = 0
KPD3 242028Z 03005KT 21/19 A2995 RMK A01 T02050194  RH  094%=      5-min Rain = 0
KPD3 242029Z 04005KT 21/19 A2995 RMK A01 T02050194  RH  094%=      5-min Rain = 0
KPD3 242030Z 05006KT 21/19 A2994 RMK A01 T02050194  RH  094%=      5-min Rain = 0
KPD3 242031Z 06007KT 20/19 A2993 RMK A01 T02040194  RH  094%=      5-min Rain = 0
KPD3 242032Z 06008KT 20/19 A2993 RMK A01 T02040194  RH  094%=      5-min Rain = 0
KPD3 242033Z 06009KT 20/19 A2992 RMK A01 T02040194  RH  094%=      5-min Rain = 0
KPD3 242034Z 05009KT 20/19 A2992 RMK A01 T02040194  RH  094%=      5-min Rain = 0
KPD3 242035Z 04006KT 20/19 A2992 RMK A01 T02040194  RH  094%=      5-min Rain = 0
KPD3 242036Z 01005KT 20/19 A2993 RMK A01 T02030194  RH  094%=      5-min Rain = 0
KPD3 242037Z 36005KT 20/19 A2994 RMK A01 T02030194  RH  094%=      5-min Rain = 0
KPD3 242038Z 34005KT 20/19 A2994 RMK A01 T02030193  RH  094%=      5-min Rain = 0
KPD3 242039Z 35005KT 20/19 A2994 RMK A01 T02030193  RH  094%=      5-min Rain = 0
KPD3 242040Z 02006KT 20/19 A2993 RMK A01 T02020193  RH  094%=      5-min Rain = 0
KPD3 242041Z 03006KT 20/19 A2993 RMK A01 T02030194  RH  095%=      5-min Rain = 0
KPD3 242042Z 04006KT 20/19 A2993 RMK A01 T02030194  RH  095%=      5-min Rain = 0
KPD3 242043Z 05004KT 20/19 A2993 RMK A01 T02030194  RH  095%=      5-min Rain = 0
KPD3 242044Z 05005KT 20/19 A2993 RMK A01 T02030194  RH  095%=      5-min Rain = 0
KPD3 242045Z 05006KT 20/19 A2993 RMK A01 T02030194  RH  095%=      5-min Rain = 0
KPD3 242046Z 05007KT 20/19 A2992 RMK A01 T02030194  RH  095%=      5-min Rain = 0
KPD3 242047Z 05007KT 20/19 A2992 RMK A01 T02020194  RH  095%=      5-min Rain = 0
KPD3 242048Z 05007KT 20/19 A2992 RMK A01 T02030194  RH  095%=      5-min Rain = 0
KPD3 242049Z 05006KT 20/19 A2992 RMK A01 T02020194  RH  095%=      5-min Rain = 0
KPD3 242050Z 04007KT 20/19 A2992 RMK A01 T02020194  RH  095%=      5-min Rain = 0
KPD3 242051Z 03007KT 20/19 A2991 RMK A01 T02020193  RH  095%=      5-min Rain = 0
KPD3 242052Z 03006KT 20/19 A2991 RMK A01 T02020194  RH  095%=      5-min Rain = 0
KPD3 242053Z 02006KT 20/19 A2992 RMK A01 T02020194  RH  095%=      5-min Rain = 0
KPD3 242054Z 01006KT 20/19 A2992 RMK A01 T02020194  RH  095%=      5-min Rain = 0
KPD3 242055Z 36005KT 20/19 A2992 RMK A01 T02020194  RH  095%=      5-min Rain = 0
KPD3 242056Z 00003KT 20/19 A2993 RMK A01 T02020194  RH  095%=      5-min Rain = 0
KPD3 242057Z 03003KT 20/19 A2993 RMK A01 T02020194  RH  095%=      5-min Rain = 0
KPD3 242058Z 04003KT 20/19 A2992 RMK A01 T02020194  RH  095%=      5-min Rain = 0
KPD3 242059Z 03004KT 20/19 A2992 RMK A01 T02020194  RH  095%=      5-min Rain = 0
KPD3 242100Z 04005KT 20/19 A2991 RMK A01 T02020194  RH  095%=      5-min Rain = 0
KPD3 242101Z 04007KT 20/19 A2991 RMK A01 T02020194  RH  095%=      5-min Rain = 0
KPD3 242102Z 04007KT 20/19 A299 RMK A01 T02020194  RH  095%=      5-min Rain = 0
KPD3 242103Z 05007KT 20/19 A299 RMK A01 T02010193  RH  095%=      5-min Rain = 0
KPD3 242104Z 05008KT 20/19 A2991 RMK A01 T02010193  RH  095%=      5-min Rain = 0
KPD3 242105Z 05007KT 20/19 A2991 RMK A01 T02010193  RH  095%=      5-min Rain = 0
KPD3 242106Z 05007KT 20/19 A2991 RMK A01 T02010193  RH  095%=      5-min Rain = 0
KPD3 242107Z 05007KT 20/19 A299 RMK A01 T02010193  RH  095%=      5-min Rain = 0
KPD3 242108Z 03006KT 20/19 A299 RMK A01 T02010193  RH  095%=      5-min Rain = 0
KPD3 242109Z 03006KT 20/19 A2991 RMK A01 T02010193  RH  095%=      5-min Rain = 0
KPD3 242110Z 02006KT 20/19 A2991 RMK A01 T02010193  RH  095%=      5-min Rain = 0
KPD3 242111Z 02006KT 20/19 A2991 RMK A01 T02000193  RH  095%=      5-min Rain = 0
KPD3 242112Z 02006KT 20/19 A2991 RMK A01 T02000193  RH  096%=      5-min Rain = 0
KPD3 242113Z 02006KT 20/19 A2991 RMK A01 T02000193  RH  096%=      5-min Rain = 0
KPD3 242114Z 02007KT 20/19 A2991 RMK A01 T02000193  RH  096%=      5-min Rain = 0
KPD3 242115Z 02006KT 20/19 A2991 RMK A01 T02000193  RH  096%=      5-min Rain = 0
KPD3 242116Z 02005KT 20/19 A2991 RMK A01 T02000193  RH  096%=      5-min Rain = 0
KPD3 242117Z 03004KT 20/19 A2992 RMK A01 T02000193  RH  096%=      5-min Rain = 0
KPD3 242118Z 03004KT 20/19 A2992 RMK A01 T02000193  RH  096%=      5-min Rain = 0
KPD3 242119Z 03006KT 20/19 A2992 RMK A01 T02000193  RH  096%=      5-min Rain = 0
KPD3 242120Z 03005KT 20/19 A2991 RMK A01 T02000193  RH  096%=      5-min Rain = 0
KPD3 242121Z 01005KT 20/19 A2991 RMK A01 T02000193  RH  096%=      5-min Rain = 0
KPD3 242122Z 02005KT 20/19 A2991 RMK A01 T02000193  RH  096%=      5-min Rain = 0
KPD3 242123Z 01004KT 20/19 A2991 RMK A01 T02000193  RH  096%=      5-min Rain = 0
KPD3 242124Z 01004KT 20/19 A2991 RMK A01 T02000193  RH  096%=      5-min Rain = 0
KPD3 242125Z 02004KT 20/19 A2991 RMK A01 T02000193  RH  096%=      5-min Rain = 0
KPD3 242126Z 01003KT 20/19 A2991 RMK A01 T02000193  RH  096%=      5-min Rain = 0
KPD3 242127Z 02003KT 20/19 A2991 RMK A01 T02000193  RH  096%=      5-min Rain = 0
KPD3 242128Z 03003KT 20/19 A2992 RMK A01 T02000193  RH  096%=      5-min Rain = 0
KPD3 242129Z 03004KT 20/19 A2992 RMK A01 T02000193  RH  096%=      5-min Rain = 0
KPD3 242130Z 04004KT 20/19 A2992 RMK A01 T02000193  RH  096%=      5-min Rain = 0
KPD3 242131Z 04003KT 20/19 A2991 RMK A01 T02000193  RH  096%=      5-min Rain = 0
KPD3 242132Z 02004KT 20/19 A2991 RMK A01 T02000193  RH  096%=      5-min Rain = 0
KPD3 242133Z 01005KT 20/19 A299 RMK A01 T02000193  RH  096%=      5-min Rain = 0
KPD3 242134Z 01005KT 20/19 A299 RMK A01 T02000194  RH  096%=      5-min Rain = 0
KPD3 242135Z 01005KT 20/19 A299 RMK A01 T02000193  RH  096%=      5-min Rain = 0
KPD3 242136Z 01005KT 20/19 A299 RMK A01 T02000193  RH  096%=      5-min Rain = 0
KPD3 242137Z 00005KT 20/19 A299 RMK A01 T01990193  RH  096%=      5-min Rain = 0
KPD3 242138Z 00006KT 20/19 A299 RMK A01 T01990193  RH  096%=      5-min Rain = 0
KPD3 242139Z 36006KT 20/19 A299 RMK A01 T01990193  RH  096%=      5-min Rain = 0
KPD3 242140Z 00006KT 20/19 A299 RMK A01 T01990193  RH  096%=      5-min Rain = 0
KPD3 242141Z 36005KT 20/19 A299 RMK A01 T01990193  RH  096%=      5-min Rain = 0
KPD3 242142Z 35005KT 20/19 A299 RMK A01 T01990193  RH  096%=      5-min Rain = 0
KPD3 242143Z 36005KT 20/19 A299 RMK A01 T01990193  RH  096%=      5-min Rain = 0
KPD3 242144Z 01004KT 20/19 A299 RMK A01 T01990193  RH  096%=      5-min Rain = 0
KPD3 242145Z 01004KT 20/19 A2991 RMK A01 T01990193  RH  096%=      5-min Rain = 0
KPD3 242146Z 02004KT 20/19 A299 RMK A01 T01990193  RH  096%=      5-min Rain = 0
KPD3 242147Z 02005KT 20/19 A299 RMK A01 T01990193  RH  096%=      5-min Rain = 0
KPD3 242148Z 02005KT 20/19 A299 RMK A01 T01990193  RH  096%=      5-min Rain = 0
KPD3 242149Z 02005KT 20/19 A299 RMK A01 T01990193  RH  096%=      5-min Rain = 0
KPD3 242150Z 02005KT 20/19 A299 RMK A01 T01990193  RH  096%=      5-min Rain = 0
KPD3 242151Z 01006KT 20/19 A2989 RMK A01 T01990193  RH  097%=      5-min Rain = 0
KPD3 242152Z 02006KT 20/19 A2989 RMK A01 T01990193  RH  097%=      5-min Rain = 0
KPD3 242153Z 02006KT 20/19 A2989 RMK A01 T01990194  RH  097%=      5-min Rain = 0
KPD3 242154Z 02005KT 20/19 A2989 RMK A01 T01990193  RH  097%=      5-min Rain = 0
KPD3 242155Z 02005KT 20/19 A2989 RMK A01 T01990193  RH  097%=      5-min Rain = 0
KPD3 242156Z 01005KT 20/19 A2989 RMK A01 T01990194  RH  097%=      5-min Rain = 0
KPD3 242157Z 36005KT 20/19 A2989 RMK A01 T01990194  RH  097%=      5-min Rain = 0
KPD3 242158Z 35005KT 20/19 A2989 RMK A01 T01980193  RH  097%=      5-min Rain = 0
KPD3 242159Z 35006KT 20/19 A2988 RMK A01 T01990193  RH  097%=      5-min Rain = 0
KPD3 242200Z 35006KT 20/19 A2988 RMK A01 T01990194  RH  097%=      5-min Rain = 0
KPD3 242201Z 35005KT 20/19 A2988 RMK A01 T01990193  RH  097%=      5-min Rain = 0
KPD3 242202Z 35005KT 20/19 A2988 RMK A01 T01980193  RH  097%=      5-min Rain = 0
KPD3 242203Z 35005KT 20/19 A2988 RMK A01 T01990194  RH  097%=      5-min Rain = 0
KPD3 242204Z 36005KT 20/19 A2988 RMK A01 T01980193  RH  097%=      5-min Rain = 0
KPD3 242205Z 36004KT 20/19 A2988 RMK A01 T01980193  RH  097%=      5-min Rain = 0
KPD3 242206Z 35004KT 20/19 A2988 RMK A01 T01980193  RH  097%=      5-min Rain = 0
KPD3 242207Z 35004KT 20/19 A2988 RMK A01 T01980193  RH  097%=      5-min Rain = 0
KPD3 242208Z 36004KT 20/19 A2988 RMK A01 T01980193  RH  097%=      5-min Rain = 0
KPD3 242209Z 36004KT 20/19 A2988 RMK A01 T01980193  RH  097%=      5-min Rain = 0
KPD3 242210Z 00004KT 20/19 A2987 RMK A01 T01980193  RH  097%=      5-min Rain = 0
KPD3 242211Z 01005KT 20/19 A2987 RMK A01 T01980193  RH  097%=      5-min Rain = 0
KPD3 242212Z 02004KT 20/19 A2987 RMK A01 T01980194  RH  097%=      5-min Rain = 0
KPD3 242213Z 02004KT 20/19 A2987 RMK A01 T01980193  RH  097%=      5-min Rain = 0
KPD3 242214Z 03005KT 20/19 A2987 RMK A01 T01980194  RH  097%=      5-min Rain = 0
KPD3 242215Z 03004KT 20/19 A2987 RMK A01 T01980194  RH  097%=      5-min Rain = 0
KPD3 242216Z 01004KT 20/19 A2987 RMK A01 T01980194  RH  097%=      5-min Rain = 0
KPD3 242217Z 36004KT 20/19 A2987 RMK A01 T01980194  RH  097%=      5-min Rain = 0
KPD3 242218Z 35004KT 20/19 A2987 RMK A01 T01980194  RH  097%=      5-min Rain = 0
KPD3 242219Z 35004KT 20/19 A2987 RMK A01 T01980194  RH  097%=      5-min Rain = 0
KPD3 242220Z 34005KT 20/19 A2987 RMK A01 T01980194  RH  097%=      5-min Rain = 0
KPD3 242221Z 34005KT 20/19 A2987 RMK A01 T01980194  RH  097%=      5-min Rain = 0
KPD3 242222Z 34005KT 20/19 A2987 RMK A01 T01980194  RH  097%=      5-min Rain = 0
KPD3 242223Z 34005KT 20/19 A2987 RMK A01 T01980194  RH  097%=      5-min Rain = 0
KPD3 242224Z 34004KT 20/19 A2987 RMK A01 T01980194  RH  097%=      5-min Rain = 0
KPD3 242225Z 34004KT 20/19 A2987 RMK A01 T01980194  RH  097%=      5-min Rain = 0
KPD3 242226Z 34004KT 20/19 A2988 RMK A01 T01980194  RH  097%=      5-min Rain = 0
KPD3 242227Z 34003KT 20/19 A2988 RMK A01 T01980194  RH  097%=      5-min Rain = 0
KPD3 242228Z 36002KT 20/19 A2988 RMK A01 T01980194  RH  097%=      5-min Rain = 0
KPD3 242229Z 02002KT 20/19 A2988 RMK A01 T01970193  RH  097%=      5-min Rain = 0
KPD3 242230Z 02002KT 20/19 A2988 RMK A01 T01970193  RH  097%=      5-min Rain = 0
KPD3 242231Z 03001KT 20/19 A2988 RMK A01 T01980194  RH  097%=      5-min Rain = 0
KPD3 242232Z 00000KT 20/19 A2988 RMK A01 T01980194  RH  097%=      5-min Rain = 0
KPD3 242233Z 02001KT 20/19 A2988 RMK A01 T01970193  RH  097%=      5-min Rain = 0
KPD3 242234Z 04001KT 20/19 A2988 RMK A01 T01980194  RH  097%=      5-min Rain = 0
KPD3 242235Z 03001KT 20/19 A2988 RMK A01 T01980193  RH  097%=      5-min Rain = 0
KPD3 242236Z 06001KT 20/19 A2988 RMK A01 T01970193  RH  097%=      5-min Rain = 0
KPD3 242237Z 06001KT 20/19 A2988 RMK A01 T01980194  RH  097%=      5-min Rain = 0
KPD3 242238Z 08001KT 20/19 A2988 RMK A01 T01980194  RH  097%=      5-min Rain = 0
KPD3 242239Z 05002KT 20/19 A2988 RMK A01 T01980193  RH  097%=      5-min Rain = 0
KPD3 242240Z 04002KT 20/19 A2988 RMK A01 T01970193  RH  097%=      5-min Rain = 0
KPD3 242241Z 03002KT 20/19 A2988 RMK A01 T01980194  RH  097%=      5-min Rain = 0
KPD3 242242Z 03002KT 20/19 A2988 RMK A01 T01980194  RH  097%=      5-min Rain = 0
KPD3 242243Z 03003KT 20/19 A2988 RMK A01 T01980194  RH  097%=      5-min Rain = 0
KPD3 242244Z 04003KT 20/19 A2988 RMK A01 T01980194  RH  097%=      5-min Rain = 0
KPD3 242245Z 04003KT 20/19 A2988 RMK A01 T01980194  RH  097%=      5-min Rain = 0
KPD3 242246Z 03003KT 20/19 A2987 RMK A01 T01980194  RH  098%=      5-min Rain = 0
KPD3 242247Z 01003KT 20/19 A2987 RMK A01 T01980194  RH  098%=      5-min Rain = 0
KPD3 242248Z 35003KT 20/19 A2987 RMK A01 T01980194  RH  098%=      5-min Rain = 0
KPD3 242249Z 35003KT 20/19 A2987 RMK A01 T01980194  RH  098%=      5-min Rain = 0
KPD3 242250Z 00003KT 20/19 A2987 RMK A01 T01980194  RH  098%=      5-min Rain = 0
KPD3 242251Z 01002KT 20/19 A2987 RMK A01 T01980194  RH  098%=      5-min Rain = 0
KPD3 242252Z 02002KT 20/19 A2987 RMK A01 T01980194  RH  098%=      5-min Rain = 0
KPD3 242253Z 03002KT 20/19 A2987 RMK A01 T01980194  RH  098%=      5-min Rain = 0
KPD3 242254Z 03002KT 20/19 A2987 RMK A01 T01980194  RH  098%=      5-min Rain = 0
KPD3 242255Z 03002KT 20/20 A2987 RMK A01 T01980195  RH  098%=      5-min Rain = 0
KPD3 242256Z 02002KT 20/19 A2987 RMK A01 T01980194  RH  098%=      5-min Rain = 0
KPD3 242257Z 02002KT 20/19 A2987 RMK A01 T01980194  RH  098%=      5-min Rain = 0
KPD3 242258Z 02002KT 20/19 A2987 RMK A01 T01980194  RH  098%=      5-min Rain = 0
KPD3 242259Z 02002KT 20/19 A2987 RMK A01 T01980194  RH  098%=      5-min Rain = 0
KPD3 242300Z 02002KT 20/19 A2987 RMK A01 T01980194  RH  098%=      5-min Rain = 0
KPD3 242301Z 03003KT 20/19 A2986 RMK A01 T01980194  RH  098%=      5-min Rain = 0
KPD3 242302Z 03003KT 20/19 A2986 RMK A01 T01980194  RH  098%=      5-min Rain = 0
KPD3 242303Z 02004KT 20/19 A2986 RMK A01 T01980194  RH  098%=      5-min Rain = 0
KPD3 242304Z 02004KT 20/20 A2986 RMK A01 T01980195  RH  098%=      5-min Rain = 0
KPD3 242305Z 02004KT 20/19 A2986 RMK A01 T01980194  RH  098%=      5-min Rain = 0
KPD3 242306Z 02003KT 20/20 A2986 RMK A01 T01980195  RH  098%=      5-min Rain = 0
KPD3 242307Z 02002KT 20/19 A2986 RMK A01 T01980194  RH  098%=      5-min Rain = 0
KPD3 242308Z 03002KT 20/19 A2986 RMK A01 T01980194  RH  098%=      5-min Rain = 0
KPD3 242309Z 03002KT 20/20 A2986 RMK A01 T01980195  RH  098%=      5-min Rain = 0
KPD3 242310Z 04001KT 20/19 A2986 RMK A01 T01980194  RH  098%=      5-min Rain = 0
KPD3 242311Z 04002KT 20/20 A2986 RMK A01 T01980195  RH  098%=      5-min Rain = 0
KPD3 242312Z 02002KT 20/19 A2986 RMK A01 T01980194  RH  098%=      5-min Rain = 0
KPD3 242313Z 00001KT 20/20 A2986 RMK A01 T01980195  RH  098%=      5-min Rain = 0
KPD3 242314Z 34002KT 20/19 A2986 RMK A01 T01980194  RH  098%=      5-min Rain = 0
KPD3 242315Z 32003KT 20/20 A2986 RMK A01 T01980195  RH  098%=      5-min Rain = 0
KPD3 242316Z 31003KT 20/19 A2986 RMK A01 T01980194  RH  098%=      5-min Rain = 0
KPD3 242317Z 31003KT 20/19 A2986 RMK A01 T01980194  RH  098%=      5-min Rain = 0
KPD3 242318Z 31002KT 20/19 A2986 RMK A01 T01980194  RH  098%=      5-min Rain = 0
KPD3 242319Z 32002KT 20/19 A2985 RMK A01 T01980194  RH  098%=      5-min Rain = 0
KPD3 242320Z 33003KT 20/19 A2985 RMK A01 T01970194  RH  098%=      5-min Rain = 0
KPD3 242321Z 34004KT 20/19 A2985 RMK A01 T01970193  RH  098%=      5-min Rain = 0
KPD3 242322Z 35005KT 20/19 A2984 RMK A01 T01970193  RH  098%=      5-min Rain = 0
KPD3 242323Z 35005KT 20/19 A2984 RMK A01 T01960192  RH  098%=      5-min Rain = 0
KPD3 242324Z 35005KT 20/19 A2984 RMK A01 T01960192  RH  098%=      5-min Rain = 0
KPD3 242325Z 35005KT 20/19 A2984 RMK A01 T01960192  RH  098%=      5-min Rain = 0
KPD3 242326Z 35005KT 20/19 A2984 RMK A01 T01960192  RH  098%=      5-min Rain = 0
KPD3 242327Z 35004KT 20/19 A2984 RMK A01 T01960193  RH  098%=      5-min Rain = 0
KPD3 242328Z 35003KT 20/19 A2984 RMK A01 T01960192  RH  098%=      5-min Rain = 0
KPD3 242329Z 36003KT 20/19 A2984 RMK A01 T01960193  RH  098%=      5-min Rain = 0
KPD3 242330Z 36003KT 20/19 A2984 RMK A01 T01960193  RH  098%=      5-min Rain = 0
KPD3 242331Z 35003KT 20/19 A2984 RMK A01 T01960193  RH  098%=      5-min Rain = 0
KPD3 242332Z 35004KT 20/19 A2984 RMK A01 T01960193  RH  098%=      5-min Rain = 0
KPD3 242333Z 35005KT 20/19 A2983 RMK A01 T01960193  RH  098%=      5-min Rain = 0
KPD3 242334Z 34005KT 20/19 A2983 RMK A01 T01960193  RH  098%=      5-min Rain = 0
KPD3 242335Z 33005KT 20/19 A2983 RMK A01 T01960193  RH  098%=      5-min Rain = 0
KPD3 242336Z 32004KT 20/19 A2983 RMK A01 T01960193  RH  098%=      5-min Rain = 0
KPD3 242337Z 32004KT 20/19 A2983 RMK A01 T01960193  RH  098%=      5-min Rain = 0
KPD3 242338Z 31003KT 20/19 A2984 RMK A01 T01960193  RH  098%=      5-min Rain = 0
KPD3 242339Z 31003KT 20/19 A2984 RMK A01 T01950192  RH  098%=      5-min Rain = 0
KPD3 242340Z 31003KT 20/19 A2984 RMK A01 T01950192  RH  098%=      5-min Rain = 0
KPD3 242341Z 32002KT 20/19 A2984 RMK A01 T01950192  RH  098%=      5-min Rain = 0
KPD3 242342Z 34002KT 20/19 A2984 RMK A01 T01950192  RH  098%=      5-min Rain = 0
KPD3 242343Z 35002KT 20/19 A2984 RMK A01 T01950192  RH  098%=      5-min Rain = 0
KPD3 242344Z 35003KT 20/19 A2984 RMK A01 T01950192  RH  098%=      5-min Rain = 0
KPD3 242345Z 35003KT 20/19 A2984 RMK A01 T01950192  RH  098%=      5-min Rain = 0
KPD3 242346Z 34004KT 20/19 A2984 RMK A01 T01950192  RH  098%=      5-min Rain = 0
KPD3 242347Z 32005KT 19/19 A2984 RMK A01 T01940191  RH  098%=      5-min Rain = 0
KPD3 242348Z 32005KT 19/19 A2984 RMK A01 T01940191  RH  098%=      5-min Rain = 0
KPD3 242349Z 32005KT 20/19 A2984 RMK A01 T01950192  RH  098%=      5-min Rain = 0
KPD3 242350Z 33004KT 20/19 A2984 RMK A01 T01950192  RH  098%=      5-min Rain = 0
KPD3 242351Z 33004KT 19/19 A2984 RMK A01 T01940192  RH  098%=      5-min Rain = 0
KPD3 242352Z 33003KT 20/19 A2984 RMK A01 T01950192  RH  098%=      5-min Rain = 0
KPD3 242353Z 32002KT 19/19 A2984 RMK A01 T01940191  RH  098%=      5-min Rain = 0
KPD3 242354Z 31002KT 19/19 A2984 RMK A01 T01940192  RH  098%=      5-min Rain = 0
KPD3 242355Z 31003KT 19/19 A2984 RMK A01 T01940191  RH  098%=      5-min Rain = 0
KPD3 242356Z 31003KT 19/19 A2984 RMK A01 T01940191  RH  098%=      5-min Rain = 0
KPD3 242357Z 32003KT 19/19 A2984 RMK A01 T01940191  RH  098%=      5-min Rain = 0
KPD3 242358Z 33002KT 19/19 A2984 RMK A01 T01940191  RH  098%=      5-min Rain = 0
KPD3 242359Z 35001KT 19/19 A2985 RMK A01 T01940191  RH  098%=      5-min Rain = 0
KPD3 250000Z 17004KT 19/19 A2985 RMK A01 T01940192  RH  098%=      5-min Rain = 0
KPD3 250001Z 18003KT 19/19 A2984 RMK A01 T01940191  RH  098%=      5-min Rain = 0
KPD3 250002Z 20000KT 19/19 A2984 RMK A01 T01940191  RH  098%=      5-min Rain = 0
KPD3 250003Z 20001KT 19/19 A2984 RMK A01 T01940192  RH  098%=      5-min Rain = 0
KPD3 250004Z 19003KT 19/19 A2984 RMK A01 T01940192  RH  098%=      5-min Rain = 0
KPD3 250005Z 19003KT 20/19 A2984 RMK A01 T01950192  RH  098%=      5-min Rain = 0
KPD3 250006Z 20000KT 20/19 A2984 RMK A01 T01950192  RH  098%=      5-min Rain = 0
KPD3 250007Z 17000KT 20/19 A2984 RMK A01 T01950192  RH  098%=      5-min Rain = 0
KPD3 250008Z 15004KT 20/19 A2984 RMK A01 T01950192  RH  098%=      5-min Rain = 0
KPD3 250009Z 14004KT 20/19 A2985 RMK A01 T01950192  RH  098%=      5-min Rain = 0
KPD3 250010Z 15003KT 20/19 A2985 RMK A01 T01950192  RH  098%=      5-min Rain = 0
KPD3 250011Z 15004KT 20/19 A2985 RMK A01 T01950192  RH  098%=      5-min Rain = 0
KPD3 250012Z 16006KT 20/19 A2985 RMK A01 T01950192  RH  098%=      5-min Rain = 0
KPD3 250013Z 16006KT 20/19 A2985 RMK A01 T01950192  RH  098%=      5-min Rain = 0
KPD3 250014Z 14007KT 20/19 A2985 RMK A01 T01950192  RH  098%=      5-min Rain = 0
KPD3 250015Z 14010G17KT 20/19 A2985 RMK A01 T01950193  RH  098%=      5-min Rain = 0
KPD3 250016Z 15013KT 19/19 A2985 RMK A01 T01910187  RH  097%=      5-min Rain = 0
KPD3 250017Z 15015KT 19/18 A2985 RMK A01 T01860175  RH  094%=      5-min Rain = 0
KPD3 250018Z 15015KT 18/16 A2985 RMK A01 T01840162  RH  087%=      5-min Rain = 0
KPD3 250019Z 15012KT 18/16 A2985 RMK A01 T01830156  RH  084%=      5-min Rain = 0
KPD3 250020Z 15010KT 18/16 A2984 RMK A01 T01820156  RH  085%=      5-min Rain = 0
KPD3 250021Z 15008KT 18/16 A2984 RMK A01 T01800155  RH  085%=      5-min Rain = 0
KPD3 250022Z 14011KT 18/15 A2984 RMK A01 T01790154  RH  085%=      5-min Rain = 0
KPD3 250023Z 14011KT 18/15 A2985 RMK A01 T01770152  RH  085%=      5-min Rain = 0
KPD3 250024Z 14013KT 18/15 A2985 RMK A01 T01760151  RH  086%=      5-min Rain = 0
KPD3 250025Z 14012KT 17/15 A2985 RMK A01 T01740150  RH  086%=      5-min Rain = 0
KPD3 250026Z 14014KT 17/15 A2985 RMK A01 T01730149  RH  086%=      5-min Rain = 0
KPD3 250027Z 14011KT 17/15 A2985 RMK A01 T01730148  RH  086%=      5-min Rain = 0
KPD3 250028Z 14010KT 17/15 A2985 RMK A01 T01720149  RH  086%=      5-min Rain = 0
KPD3 250029Z 14011KT 17/15 A2985 RMK A01 T01710149  RH  087%=      5-min Rain = 0
KPD3 250030Z 15010KT 17/15 A2985 RMK A01 T01710149  RH  087%=      5-min Rain = 0
KPD3 250031Z 15011KT 17/15 A2985 RMK A01 T01700148  RH  087%=      5-min Rain = 0
KPD3 250032Z 15011KT 17/15 A2986 RMK A01 T01700148  RH  087%=      5-min Rain = 0
KPD3 250033Z 15011KT 17/15 A2986 RMK A01 T01700148  RH  087%=      5-min Rain = 0
KPD3 250034Z 15011KT 17/15 A2986 RMK A01 T01690149  RH  088%=      5-min Rain = 0
KPD3 250035Z 15011KT 17/15 A2986 RMK A01 T01690149  RH  088%=      5-min Rain = 0
KPD3 250036Z 15010KT 17/15 A2986 RMK A01 T01680149  RH  088%=      5-min Rain = 0
KPD3 250037Z 16009KT 17/15 A2986 RMK A01 T01680149  RH  088%=      5-min Rain = 0
KPD3 250038Z 15009KT 17/15 A2986 RMK A01 T01680149  RH  088%=      5-min Rain = 0
KPD3 250039Z 15008KT 17/15 A2986 RMK A01 T01680149  RH  088%=      5-min Rain = 0
KPD3 250040Z 15009KT 17/15 A2986 RMK A01 T01680149  RH  088%=      5-min Rain = 0
KPD3 250041Z 15007KT 17/15 A2986 RMK A01 T01680149  RH  089%=      5-min Rain = 0
KPD3 250042Z 15007KT 17/15 A2986 RMK A01 T01670149  RH  089%=      5-min Rain = 0
KPD3 250043Z 15007KT 17/15 A2986 RMK A01 T01670149  RH  089%=      5-min Rain = 0
KPD3 250044Z 15005KT 17/15 A2985 RMK A01 T01670149  RH  089%=      5-min Rain = 0
KPD3 250045Z 15005KT 17/15 A2985 RMK A01 T01670149  RH  089%=      5-min Rain = 0
KPD3 250046Z 15005KT 17/15 A2985 RMK A01 T01670150  RH  090%=      5-min Rain = 0
KPD3 250047Z 15005KT 17/15 A2985 RMK A01 T01660149  RH  090%=      5-min Rain = 0
KPD3 250048Z 15004KT 17/15 A2985 RMK A01 T01660149  RH  090%=      5-min Rain = 0
KPD3 250049Z 16004KT 17/15 A2985 RMK A01 T01660150  RH  090%=      5-min Rain = 0
KPD3 250050Z 16005KT 17/15 A2986 RMK A01 T01660149  RH  090%=      5-min Rain = 0
KPD3 250051Z 16004KT 17/15 A2986 RMK A01 T01660149  RH  090%=      5-min Rain = 0
KPD3 250052Z 15004KT 17/15 A2986 RMK A01 T01660150  RH  090%=      5-min Rain = 0
KPD3 250053Z 15004KT 17/15 A2986 RMK A01 T01660150  RH  090%=      5-min Rain = 0
KPD3 250054Z 16004KT 17/15 A2987 RMK A01 T01660150  RH  090%=      5-min Rain = 0
KPD3 250055Z 16004KT 17/15 A2987 RMK A01 T01650150  RH  090%=      5-min Rain = 0
KPD3 250056Z 16003KT 17/15 A2987 RMK A01 T01650150  RH  090%=      5-min Rain = 0
KPD3 250057Z 16003KT 17/15 A2987 RMK A01 T01650150  RH  090%=      5-min Rain = 0
KPD3 250058Z 15003KT 17/15 A2987 RMK A01 T01650150  RH  090%=      5-min Rain = 0
KPD3 250059Z 14004KT 17/15 A2987 RMK A01 T01650150  RH  090%=      5-min Rain = 0
KPD3 250100Z 13004KT 17/15 A2987 RMK A01 T01650150  RH  091%=      5-min Rain = 0
KPD3 250101Z 12006KT 17/15 A2987 RMK A01 T01660151  RH  091%=      5-min Rain = 0
KPD3 250102Z 12006KT 17/15 A2988 RMK A01 T01650150  RH  091%=      5-min Rain = 0
KPD3 250103Z 12005KT 17/15 A2987 RMK A01 T01650151  RH  091%=      5-min Rain = 0
KPD3 250104Z 12004KT 17/15 A2987 RMK A01 T01650152  RH  092%=      5-min Rain = 0
KPD3 250105Z 13003KT 17/15 A2987 RMK A01 T01650151  RH  092%=      5-min Rain = 0
KPD3 250106Z 12003KT 17/15 A2987 RMK A01 T01650151  RH  092%=      5-min Rain = 0
KPD3 250107Z 12005KT 17/15 A2987 RMK A01 T01650151  RH  092%=      5-min Rain = 0
KPD3 250108Z 13006KT 17/15 A2987 RMK A01 T01660152  RH  091%=      5-min Rain = 0
KPD3 250109Z 12006KT 17/15 A2986 RMK A01 T01660153  RH  092%=      5-min Rain = 0
KPD3 250110Z 11006KT 17/15 A2986 RMK A01 T01670153  RH  091%=      5-min Rain = 0
KPD3 250111Z 11006KT 17/15 A2986 RMK A01 T01670153  RH  091%=      5-min Rain = 0
KPD3 250112Z 10005KT 17/15 A2985 RMK A01 T01670152  RH  091%=      5-min Rain = 0
KPD3 250113Z 10005KT 17/15 A2985 RMK A01 T01670152  RH  091%=      5-min Rain = 0
KPD3 250114Z 08004KT 17/15 A2985 RMK A01 T01680152  RH  091%=      5-min Rain = 0
KPD3 250115Z 05002KT 17/15 A2985 RMK A01 T01680152  RH  091%=      5-min Rain = 0
KPD3 250116Z 04002KT 17/15 A2985 RMK A01 T01680153  RH  091%=      5-min Rain = 0
KPD3 250117Z 11002KT 17/15 A2986 RMK A01 T01690153  RH  091%=      5-min Rain = 0
KPD3 250118Z 11004KT 17/15 A2986 RMK A01 T01690153  RH  090%=      5-min Rain = 0
KPD3 250119Z 10004KT 17/15 A2986 RMK A01 T01690154  RH  090%=      5-min Rain = 0
KPD3 250120Z 11003KT 17/15 A2986 RMK A01 T01700154  RH  090%=      5-min Rain = 0
KPD3 250121Z 10004KT 17/15 A2986 RMK A01 T01700154  RH  090%=      5-min Rain = 0
KPD3 250122Z 11003KT 17/15 A2986 RMK A01 T01700154  RH  090%=      5-min Rain = 0
KPD3 250123Z 11003KT 17/15 A2986 RMK A01 T01700154  RH  090%=      5-min Rain = 0
KPD3 250124Z 13003KT 17/15 A2987 RMK A01 T01690153  RH  090%=      5-min Rain = 0
KPD3 250125Z 14003KT 17/15 A2987 RMK A01 T01690153  RH  090%=      5-min Rain = 0
KPD3 250126Z 15006KT 17/15 A2987 RMK A01 T01690154  RH  090%=      5-min Rain = 0
KPD3 250127Z 15006KT 17/15 A2988 RMK A01 T01690154  RH  091%=      5-min Rain = 0
KPD3 250128Z 16004KT 17/15 A2987 RMK A01 T01690154  RH  091%=      5-min Rain = 0
KPD3 250129Z 16003KT 17/15 A2988 RMK A01 T01690154  RH  091%=      5-min Rain = 0
KPD3 250130Z 15005KT 17/15 A2988 RMK A01 T01690154  RH  091%=      5-min Rain = 0
KPD3 250131Z 14006KT 17/15 A2989 RMK A01 T01690154  RH  091%=      5-min Rain = 0
KPD3 250132Z 13007KT 17/16 A2989 RMK A01 T01690155  RH  091%=      5-min Rain = 0
KPD3 250133Z 13008KT 17/16 A2989 RMK A01 T01690155  RH  092%=      5-min Rain = 0
KPD3 250134Z 12008KT 17/16 A2989 RMK A01 T01680155  RH  092%=      5-min Rain = 0
KPD3 250135Z 13007KT 17/16 A2988 RMK A01 T01680155  RH  092%=      5-min Rain = 0
KPD3 250136Z 15007KT 17/16 A2988 RMK A01 T01680155  RH  092%=      5-min Rain = 0
KPD3 250137Z 15009KT 17/16 A2989 RMK A01 T01680155  RH  092%=      5-min Rain = 0
KPD3 250138Z 14008KT 17/16 A2989 RMK A01 T01680155  RH  092%=      5-min Rain = 0
KPD3 250139Z 12008KT 17/16 A2989 RMK A01 T01670155  RH  093%=      5-min Rain = 0
KPD3 250140Z 13007KT 17/16 A2989 RMK A01 T01670156  RH  093%=      5-min Rain = 0
KPD3 250141Z 14010KT 17/16 A2989 RMK A01 T01670156  RH  093%=      5-min Rain = 0
KPD3 250142Z 15009KT 17/16 A299 RMK A01 T01670156  RH  093%=      5-min Rain = 0
KPD3 250143Z 17007KT 17/16 A2989 RMK A01 T01670156  RH  093%=      5-min Rain = 0
KPD3 250144Z 16006KT 17/16 A2989 RMK A01 T01670156  RH  093%=      5-min Rain = 0
KPD3 250145Z 17005KT 17/16 A2988 RMK A01 T01670156  RH  093%=      5-min Rain = 0
KPD3 250146Z 17006KT 17/16 A2988 RMK A01 T01670156  RH  093%=      5-min Rain = 0
KPD3 250147Z 15008KT 17/16 A2989 RMK A01 T01660156  RH  093%=      5-min Rain = 0
KPD3 250148Z 14009KT 17/16 A2989 RMK A01 T01660156  RH  093%=      5-min Rain = 0
KPD3 250149Z 14009KT 17/16 A2989 RMK A01 T01660156  RH  094%=      5-min Rain = 0
KPD3 250150Z 13008KT 17/16 A2989 RMK A01 T01660156  RH  094%=      5-min Rain = 0
KPD3 250151Z 13009KT 17/16 A2989 RMK A01 T01660156  RH  094%=      5-min Rain = 0
KPD3 250152Z 13010KT 17/16 A299 RMK A01 T01660156  RH  094%=      5-min Rain = 0
KPD3 250153Z 13010KT 17/16 A299 RMK A01 T01660157  RH  094%=      5-min Rain = 0
KPD3 250154Z 13012KT 17/16 A299 RMK A01 T01650156  RH  095%=      5-min Rain = 0
KPD3 250155Z 13010KT 17/16 A299 RMK A01 T01650157  RH  095%=      5-min Rain = 0
KPD3 250156Z 14007KT 17/16 A2989 RMK A01 T01650157  RH  095%=      5-min Rain = 0
KPD3 250157Z 14009KT 17/16 A2989 RMK A01 T01650157  RH  095%=      5-min Rain = 0
KPD3 250158Z 14007KT 17/16 A2989 RMK A01 T01650157  RH  095%=      5-min Rain = 0
KPD3 250159Z 14006KT 17/16 A2989 RMK A01 T01650156  RH  095%=      5-min Rain = 0
KPD3 250200Z 14008KT 17/16 A2989 RMK A01 T01650157  RH  095%=      5-min Rain = 0
KPD3 250201Z 14008KT 17/16 A2989 RMK A01 T01650157  RH  095%=      5-min Rain = 0
KPD3 250202Z 14008KT 17/16 A2989 RMK A01 T01650157  RH  095%=      5-min Rain = 0
KPD3 250203Z 16005KT 17/16 A2989 RMK A01 T01650157  RH  095%=      5-min Rain = 0
KPD3 250204Z 15004KT 16/16 A2988 RMK A01 T01640157  RH  095%=      5-min Rain = 0
KPD3 250205Z 12007KT 16/16 A2989 RMK A01 T01640157  RH  095%=      5-min Rain = 0
KPD3 250206Z 11008KT 17/16 A2989 RMK A01 T01650158  RH  096%=      5-min Rain = 0
KPD3 250207Z 11007KT 16/16 A2989 RMK A01 T01640158  RH  096%=      5-min Rain = 0
KPD3 250208Z 11006KT 16/16 A2989 RMK A01 T01640158  RH  096%=      5-min Rain = 0
KPD3 250209Z 11005KT 17/16 A2989 RMK A01 T01650158  RH  096%=      5-min Rain = 0
KPD3 250210Z 12002KT 16/16 A2989 RMK A01 T01640158  RH  096%=      5-min Rain = 0
KPD3 250211Z 23002KT 17/16 A2988 RMK A01 T01650158  RH  096%=      5-min Rain = 0
KPD3 250212Z 22002KT 16/16 A2988 RMK A01 T01640158  RH  096%=      5-min Rain = 0
KPD3 250213Z 20003KT 16/16 A2988 RMK A01 T01640158  RH  096%=      5-min Rain = 0
KPD3 250214Z 19004KT 16/16 A2989 RMK A01 T01640158  RH  096%=      5-min Rain = 0
KPD3 250215Z 18004KT 16/16 A2989 RMK A01 T01640157  RH  096%=      5-min Rain = 0
KPD3 250216Z 17005KT 16/16 A2989 RMK A01 T01640158  RH  096%=      5-min Rain = 0
KPD3 250217Z 18004KT 16/16 A2989 RMK A01 T01640157  RH  096%=      5-min Rain = 0
KPD3 250218Z 18003KT 16/16 A2988 RMK A01 T01640157  RH  096%=      5-min Rain = 0
KPD3 250219Z 19003KT 16/16 A2988 RMK A01 T01630157  RH  096%=      5-min Rain = 0
KPD3 250220Z 18003KT 16/16 A2988 RMK A01 T01630157  RH  096%=      5-min Rain = 0
KPD3 250221Z 16003KT 16/16 A2989 RMK A01 T01630157  RH  096%=      5-min Rain = 0
KPD3 250222Z 14004KT 16/16 A2989 RMK A01 T01630157  RH  096%=      5-min Rain = 0
KPD3 250223Z 14005KT 16/16 A2989 RMK A01 T01620156  RH  096%=      5-min Rain = 0
KPD3 250224Z 14004KT 16/16 A2989 RMK A01 T01610156  RH  096%=      5-min Rain = 0
KPD3 250225Z 15002KT 16/16 A2989 RMK A01 T01610156  RH  096%=      5-min Rain = 0
KPD3 250226Z 16000KT 16/16 A2988 RMK A01 T01610155  RH  096%=      5-min Rain = 0
KPD3 250227Z 00000KT 16/16 A2988 RMK A01 T01610156  RH  097%=      5-min Rain = 0
KPD3 250228Z 22001KT 16/16 A2988 RMK A01 T01610156  RH  097%=      5-min Rain = 0
KPD3 250229Z 20002KT 16/16 A2988 RMK A01 T01610156  RH  097%=      5-min Rain = 0
KPD3 250230Z 19004KT 16/16 A2989 RMK A01 T01610156  RH  097%=      5-min Rain = 0
KPD3 250231Z 17004KT 16/16 A2989 RMK A01 T01610155  RH  097%=      5-min Rain = 0
KPD3 250232Z 17004KT 16/15 A2989 RMK A01 T01600154  RH  097%=      5-min Rain = 0
KPD3 250233Z 17002KT 16/15 A2988 RMK A01 T01590154  RH  097%=      5-min Rain = 0
KPD3 250234Z 16001KT 16/15 A2988 RMK A01 T01590154  RH  097%=      5-min Rain = 0
KPD3 250235Z 15001KT 16/15 A2988 RMK A01 T01590154  RH  097%=      5-min Rain = 0
KPD3 250236Z 15004KT 16/16 A2988 RMK A01 T01590155  RH  097%=      5-min Rain = 0
KPD3 250237Z 15005KT 16/15 A2988 RMK A01 T01590154  RH  097%=      5-min Rain = 0
KPD3 250238Z 16005KT 16/15 A2988 RMK A01 T01580154  RH  097%=      5-min Rain = 0
KPD3 250239Z 17004KT 16/15 A2988 RMK A01 T01580153  RH  097%=      5-min Rain = 0
KPD3 250240Z 19004KT 16/15 A2988 RMK A01 T01580153  RH  097%=      5-min Rain = 0
KPD3 250241Z 21004KT 16/15 A2988 RMK A01 T01580154  RH  097%=      5-min Rain = 0
KPD3 250242Z 24003KT 16/15 A2987 RMK A01 T01570153  RH  097%=      5-min Rain = 0
KPD3 250243Z 22003KT 16/15 A2988 RMK A01 T01580154  RH  098%=      5-min Rain = 0
KPD3 250244Z 19006KT 16/15 A2989 RMK A01 T01580154  RH  098%=      5-min Rain = 0
KPD3 250245Z 18008KT 16/15 A299 RMK A01 T01580154  RH  098%=      5-min Rain = 0
KPD3 250246Z 16006KT 16/16 A2989 RMK A01 T01580155  RH  098%=      5-min Rain = 0
KPD3 250247Z 13004KT 16/15 A2989 RMK A01 T01580154  RH  098%=      5-min Rain = 0
KPD3 250248Z 13003KT 16/15 A2988 RMK A01 T01580154  RH  098%=      5-min Rain = 0
KPD3 250249Z 14002KT 16/15 A2988 RMK A01 T01570154  RH  098%=      5-min Rain = 0
KPD3 250250Z 16002KT 16/15 A2988 RMK A01 T01570154  RH  098%=      5-min Rain = 0
KPD3 250251Z 16000KT 16/16 A2988 RMK A01 T01580155  RH  098%=      5-min Rain = 0
KPD3 250252Z 06001KT 16/15 A2988 RMK A01 T01580154  RH  098%=      5-min Rain = 0
KPD3 250253Z 06002KT 16/16 A2988 RMK A01 T01580155  RH  098%=      5-min Rain = 0
KPD3 250254Z 08001KT 16/16 A2988 RMK A01 T01580155  RH  098%=      5-min Rain = 0
KPD3 250255Z 11002KT 16/16 A2988 RMK A01 T01580155  RH  098%=      5-min Rain = 0
KPD3 250256Z 11004KT 16/16 A2989 RMK A01 T01580155  RH  098%=      5-min Rain = 0
KPD3 250257Z 10005KT 16/16 A2989 RMK A01 T01580155  RH  098%=      5-min Rain = 0
KPD3 250258Z 11006KT 16/16 A2989 RMK A01 T01580155  RH  098%=      5-min Rain = 0
KPD3 250259Z 11006KT 16/16 A2989 RMK A01 T01580155  RH  098%=      5-min Rain = 0
KPD3 250300Z 11006KT 16/16 A2989 RMK A01 T01590156  RH  098%=      5-min Rain = 0
KPD3 250301Z 11005KT 16/16 A2989 RMK A01 T01590156  RH  098%=      5-min Rain = 0
KPD3 250302Z 12004KT 16/16 A2989 RMK A01 T01600157  RH  098%=      5-min Rain = 0
KPD3 250303Z 13003KT 16/16 A2989 RMK A01 T01590157  RH  098%=      5-min Rain = 0
KPD3 250304Z 14003KT 16/16 A2989 RMK A01 T01600157  RH  098%=      5-min Rain = 0
KPD3 250305Z 15003KT 16/16 A2989 RMK A01 T01590157  RH  098%=      5-min Rain = 0
KPD3 250306Z 15005KT 16/16 A299 RMK A01 T01590157  RH  098%=      5-min Rain = 0
KPD3 250307Z 14006KT 16/16 A299 RMK A01 T01600157  RH  098%=      5-min Rain = 0
KPD3 250308Z 13006KT 16/16 A299 RMK A01 T01590157  RH  098%=      5-min Rain = 0
KPD3 250309Z 13008KT 16/16 A2991 RMK A01 T01590157  RH  098%=      5-min Rain = 0
KPD3 250310Z 13007KT 16/16 A2991 RMK A01 T01590157  RH  098%=      5-min Rain = 0
KPD3 250311Z 13007KT 16/16 A2991 RMK A01 T01600158  RH  098%=      5-min Rain = 0
KPD3 250312Z 13008KT 16/16 A2992 RMK A01 T01600158  RH  099%=      5-min Rain = 0
KPD3 250313Z 13008KT 16/16 A2992 RMK A01 T01600158  RH  099%=      5-min Rain = 0
KPD3 250314Z 13007KT 16/16 A2992 RMK A01 T01600158  RH  099%=      5-min Rain = 0
KPD3 250315Z 14008KT 16/16 A2992 RMK A01 T01610159  RH  099%=      5-min Rain = 0
KPD3 250316Z 15006KT 16/16 A2992 RMK A01 T01610159  RH  099%=      5-min Rain = 0
KPD3 250317Z 14005KT 16/16 A2992 RMK A01 T01610159  RH  099%=      5-min Rain = 0
KPD3 250318Z 14004KT 16/16 A2991 RMK A01 T01610159  RH  099%=      5-min Rain = 0
KPD3 250319Z 14004KT 16/16 A2991 RMK A01 T01610159  RH  099%=      5-min Rain = 0
KPD3 250320Z 15004KT 16/16 A2991 RMK A01 T01610159  RH  099%=      5-min Rain = 0
KPD3 250321Z 17004KT 16/16 A2991 RMK A01 T01620159  RH  099%=      5-min Rain = 0
KPD3 250322Z 17005KT 16/16 A2992 RMK A01 T01620160  RH  099%=      5-min Rain = 0
KPD3 250323Z 16007KT 16/16 A2993 RMK A01 T01620160  RH  099%=      5-min Rain = 0
KPD3 250324Z 16006KT 16/16 A2993 RMK A01 T01620160  RH  099%=      5-min Rain = 0
KPD3 250325Z 16006KT 16/16 A2993 RMK A01 T01610159  RH  099%=      5-min Rain = 0
KPD3 250326Z 15005KT 16/16 A2993 RMK A01 T01610159  RH  099%=      5-min Rain = 0
KPD3 250327Z 16004KT 16/16 A2992 RMK A01 T01610159  RH  099%=      5-min Rain = 0
KPD3 250328Z 16004KT 16/16 A2993 RMK A01 T01610159  RH  099%=      5-min Rain = 0
KPD3 250329Z 17004KT 16/16 A2993 RMK A01 T01610159  RH  099%=      5-min Rain = 0
KPD3 250330Z 17004KT 16/16 A2993 RMK A01 T01610159  RH  099%=      5-min Rain = 0
KPD3 250331Z 17004KT 16/16 A2993 RMK A01 T01610159  RH  099%=      5-min Rain = 0
KPD3 250332Z 17004KT 16/16 A2993 RMK A01 T01610159  RH  099%=      5-min Rain = 0
KPD3 250333Z 17003KT 16/16 A2993 RMK A01 T01610159  RH  099%=      5-min Rain = 0
KPD3 250334Z 17003KT 16/16 A2993 RMK A01 T01610159  RH  099%=      5-min Rain = 0
KPD3 250335Z 16004KT 16/16 A2993 RMK A01 T01610159  RH  099%=      5-min Rain = 0
KPD3 250336Z 16003KT 16/16 A2993 RMK A01 T01610159  RH  099%=      5-min Rain = 0
KPD3 250337Z 16002KT 16/16 A2993 RMK A01 T01610159  RH  099%=      5-min Rain = 0
KPD3 250338Z 17002KT 16/16 A2993 RMK A01 T01600158  RH  099%=      5-min Rain = 0
KPD3 250339Z 17003KT 16/16 A2993 RMK A01 T01610158  RH  099%=      5-min Rain = 0
KPD3 250340Z 18003KT 16/16 A2993 RMK A01 T01610158  RH  099%=      5-min Rain = 0
KPD3 250341Z 17003KT 16/16 A2993 RMK A01 T01600158  RH  099%=      5-min Rain = 0
KPD3 250342Z 18003KT 16/16 A2993 RMK A01 T01600158  RH  099%=      5-min Rain = 0
KPD3 250343Z 20002KT 16/16 A2993 RMK A01 T01600158  RH  099%=      5-min Rain = 0
KPD3 250344Z 20001KT 16/16 A2993 RMK A01 T01600158  RH  099%=      5-min Rain = 0
KPD3 250345Z 20001KT 16/16 A2993 RMK A01 T01600158  RH  099%=      5-min Rain = 0
KPD3 250346Z 16000KT 16/16 A2993 RMK A01 T01600158  RH  099%=      5-min Rain = 0
KPD3 250347Z 17001KT 16/16 A2993 RMK A01 T01600158  RH  099%=      5-min Rain = 0
KPD3 250348Z 18001KT 16/16 A2993 RMK A01 T01600158  RH  099%=      5-min Rain = 0
KPD3 250349Z 17000KT 16/16 A2993 RMK A01 T01600158  RH  099%=      5-min Rain = 0
KPD3 250350Z 00000KT 16/16 A2993 RMK A01 T01600158  RH  099%=      5-min Rain = 0
KPD3 250351Z 02000KT 16/16 A2993 RMK A01 T01600158  RH  099%=      5-min Rain = 0
KPD3 250352Z 00000KT 16/16 A2993 RMK A01 T01600158  RH  099%=      5-min Rain = 0
KPD3 250353Z 00000KT 16/16 A2993 RMK A01 T01600158  RH  099%=      5-min Rain = 0
KPD3 250354Z 08001KT 16/16 A2993 RMK A01 T01600158  RH  099%=      5-min Rain = 0
KPD3 250355Z 05001KT 16/16 A2993 RMK A01 T01600158  RH  099%=      5-min Rain = 0
KPD3 250356Z 03001KT 16/16 A2993 RMK A01 T01600158  RH  099%=      5-min Rain = 0
KPD3 250357Z 01001KT 16/16 A2993 RMK A01 T01600158  RH  099%=      5-min Rain = 0
KPD3 250358Z 35002KT 16/16 A2993 RMK A01 T01600158  RH  099%=      5-min Rain = 0
KPD3 250359Z 34002KT 16/16 A2993 RMK A01 T01600158  RH  099%=      5-min Rain = 0
KPD3 250400Z 34003KT 16/16 A2993 RMK A01 T01590157  RH  099%=      5-min Rain = 0
KPD3 250401Z 33003KT 16/16 A2993 RMK A01 T01590157  RH  099%=      5-min Rain = 0
KPD3 250402Z 33003KT 16/16 A2993 RMK A01 T01590157  RH  099%=      5-min Rain = 0
KPD3 250403Z 34003KT 16/16 A2993 RMK A01 T01590157  RH  099%=      5-min Rain = 0
KPD3 250404Z 36003KT 16/16 A2993 RMK A01 T01600158  RH  099%=      5-min Rain = 0
KPD3 250405Z 01003KT 16/16 A2993 RMK A01 T01600158  RH  099%=      5-min Rain = 0
KPD3 250406Z 01004KT 16/16 A2993 RMK A01 T01600158  RH  099%=      5-min Rain = 0
KPD3 250407Z 01004KT 16/16 A2993 RMK A01 T01600159  RH  099%=      5-min Rain = 0
KPD3 250408Z 01005KT 16/16 A2993 RMK A01 T01600159  RH  099%=      5-min Rain = 0
KPD3 250409Z 02005KT 16/16 A2993 RMK A01 T01600159  RH  099%=      5-min Rain = 0
KPD3 250410Z 02005KT 16/16 A2993 RMK A01 T01610159  RH  099%=      5-min Rain = 0
KPD3 250411Z 02005KT 16/16 A2993 RMK A01 T01610159  RH  099%=      5-min Rain = 0
KPD3 250412Z 02005KT 16/16 A2993 RMK A01 T01610159  RH  099%=      5-min Rain = 0
KPD3 250413Z 02005KT 16/16 A2993 RMK A01 T01610159  RH  099%=      5-min Rain = 0
KPD3 250414Z 02006KT 16/16 A2993 RMK A01 T01600159  RH  099%=      5-min Rain = 0
KPD3 250415Z 02006KT 16/16 A2993 RMK A01 T01600159  RH  099%=      5-min Rain = 0
KPD3 250416Z 01006KT 16/16 A2993 RMK A01 T01600159  RH  099%=      5-min Rain = 0
KPD3 250417Z 02006KT 16/16 A2993 RMK A01 T01600159  RH  099%=      5-min Rain = 0
KPD3 250418Z 02006KT 16/16 A2993 RMK A01 T01600159  RH  099%=      5-min Rain = 0
KPD3 250419Z 02006KT 16/16 A2993 RMK A01 T01610159  RH  099%=      5-min Rain = 0
KPD3 250420Z 01006KT 16/16 A2993 RMK A01 T01610159  RH  099%=      5-min Rain = 0
KPD3 250421Z 00005KT 16/16 A2994 RMK A01 T01610159  RH  099%=      5-min Rain = 0
KPD3 250422Z 36004KT 16/16 A2994 RMK A01 T01610159  RH  099%=      5-min Rain = 0
KPD3 250423Z 34005KT 16/16 A2994 RMK A01 T01610160  RH  099%=      5-min Rain = 0
KPD3 250424Z 32006KT 16/16 A2994 RMK A01 T01610160  RH  099%=      5-min Rain = 0
KPD3 250425Z 32007KT 16/16 A2995 RMK A01 T01610160  RH  099%=      5-min Rain = 0
KPD3 250426Z 31007KT 16/16 A2995 RMK A01 T01610159  RH  099%=      5-min Rain = 0
KPD3 250427Z 31006KT 16/16 A2996 RMK A01 T01610159  RH  099%=      5-min Rain = 0
KPD3 250428Z 31006KT 16/16 A2996 RMK A01 T01600158  RH  099%=      5-min Rain = 0
KPD3 250429Z 31005KT 16/16 A2996 RMK A01 T01600158  RH  099%=      5-min Rain = 0
KPD3 250430Z 32005KT 16/16 A2996 RMK A01 T01600158  RH  099%=      5-min Rain = 0
KPD3 250431Z 33004KT 16/16 A2997 RMK A01 T01600158  RH  099%=      5-min Rain = 0
KPD3 250432Z 33002KT 16/16 A2997 RMK A01 T01600158  RH  099%=      5-min Rain = 0
KPD3 250433Z 00003KT 16/16 A2996 RMK A01 T01600158  RH  099%=      5-min Rain = 0
KPD3 250434Z 35004KT 16/16 A2996 RMK A01 T01600158  RH  099%=      5-min Rain = 0
KPD3 250435Z 33005KT 16/16 A2996 RMK A01 T01600158  RH  099%=      5-min Rain = 0
KPD3 250436Z 33005KT 16/16 A2996 RMK A01 T01600158  RH  099%=      5-min Rain = 0
KPD3 250437Z 33006KT 16/16 A2996 RMK A01 T01600158  RH  099%=      5-min Rain = 0
KPD3 250438Z 33006KT 16/16 A2996 RMK A01 T01600158  RH  099%=      5-min Rain = 0
KPD3 250439Z 32005KT 16/16 A2996 RMK A01 T01600158  RH  099%=      5-min Rain = 0
KPD3 250440Z 32005KT 16/16 A2996 RMK A01 T01600158  RH  099%=      5-min Rain = 0
KPD3 250441Z 32005KT 16/16 A2996 RMK A01 T01600158  RH  099%=      5-min Rain = 0
KPD3 250442Z 32005KT 16/16 A2997 RMK A01 T01600158  RH  099%=      5-min Rain = 0
KPD3 250443Z 31005KT 16/16 A2997 RMK A01 T01600158  RH  099%=      5-min Rain = 0
KPD3 250444Z 31004KT 16/16 A2997 RMK A01 T01600158  RH  099%=      5-min Rain = 0
KPD3 250445Z 33005KT 16/16 A2997 RMK A01 T01600158  RH  099%=      5-min Rain = 0
KPD3 250446Z 34004KT 16/16 A2997 RMK A01 T01600159  RH  099%=      5-min Rain = 0
KPD3 250447Z 34004KT 16/16 A2997 RMK A01 T01600159  RH  099%=      5-min Rain = 0
KPD3 250448Z 35004KT 16/16 A2997 RMK A01 T01600159  RH  099%=      5-min Rain = 0
KPD3 250449Z 35003KT 16/16 A2997 RMK A01 T01600159  RH  099%=      5-min Rain = 0
KPD3 250450Z 01003KT 16/16 A2997 RMK A01 T01600159  RH  099%=      5-min Rain = 0
KPD3 250451Z 03004KT 16/16 A2997 RMK A01 T01600159  RH  099%=      5-min Rain = 0
KPD3 250452Z 03004KT 16/16 A2997 RMK A01 T01610159  RH  099%=      5-min Rain = 0
KPD3 250453Z 04003KT 16/16 A2997 RMK A01 T01600159  RH  099%=      5-min Rain = 0
KPD3 250454Z 03003KT 16/16 A2997 RMK A01 T01600159  RH  099%=      5-min Rain = 0
KPD3 250455Z 02003KT 16/16 A2997 RMK A01 T01600159  RH  099%=      5-min Rain = 0
KPD3 250456Z 01004KT 16/16 A2997 RMK A01 T01600158  RH  099%=      5-min Rain = 0
KPD3 250457Z 01004KT 16/16 A2997 RMK A01 T01600158  RH  099%=      5-min Rain = 0
KPD3 250458Z 01004KT 16/16 A2997 RMK A01 T01600158  RH  099%=      5-min Rain = 0
KPD3 250459Z 02004KT 16/16 A2997 RMK A01 T01600158  RH  099%=      5-min Rain = 0

Page generated in 0.0818 seconds.